Return to Metar
SPECI CYNL 141309Z AUTO ///// 9SM SCT003 BKN006 OVC021 M12/M15 A2974 RMK AO1 PRESFR SLP128
METAR CYNL 141300Z AUTO ///// 8SM BKN003 OVC005 M12/M15 A2972 RMK AO1 PRESFR SLP122
SPECI CYNL 141218Z AUTO ///// 8SM BKN003 BKN005 OVC026 M12/M15 A2975 RMK AO1 PRESFR SLP134
SPECI CYNL 141212Z AUTO ///// 3SM BKN002 OVC010 M12/M15 A2975 RMK AO1 PRESFR SLP134
SPECI CYNL 141211Z AUTO ///// 2 1/2SM BKN002 OVC010 M12/M15 A2975 RMK AO1 PRESFR SLP134
SPECI CYNL 141210Z AUTO ///// 1 1/2SM BKN002 OVC010 M12/M15 A2975 RMK AO1 PRESFR SLP134
SPECI CYNL 141209Z AUTO ///// 1 1/4SM BKN002 OVC010 M12/M15 A2975 RMK AO1 PRESFR SLP134
SPECI CYNL 141208Z AUTO ///// 3/4SM BKN002 OVC010 M12/M15 A2975 RMK AO1 PRESFR SLP133
METAR CYNL 141200Z AUTO ///// 1/2SM BKN002 OVC009 M12/M15 A2975 RMK AO1 PRESFR SLP132
SPECI CYNL 141158Z AUTO ///// 1/2SM BKN002 OVC009 M12/M15 A2975 RMK AO1 PRESFR SLP134
SPECI CYNL 141151Z AUTO ///// 1/2SM FEW002 OVC009 M12/M15 A2977 RMK AO1 PRESFR SLP139
SPECI CYNL 141147Z AUTO ///// 1/2SM FEW002 OVC010 M12/M15 A2976 RMK AO1 PRESFR SLP138
SPECI CYNL 141145Z AUTO ///// 5/8SM VV009 M12/M15 A2977 RMK AO1 PRESFR SLP138
SPECI CYNL 141143Z AUTO ///// 5/8SM VV010 M12/M15 A2977 RMK AO1 PRESFR SLP139
SPECI CYNL 141134Z AUTO ///// 5/8SM VV009 M12/M15 A2978 RMK AO1 PRESFR SLP143
SPECI CYNL 141113Z AUTO ///// 5/8SM VV010 M12/M15 A2978 RMK AO1 PRESFR SLP143
SPECI CYNL 141112Z AUTO ///// 5/8SM VV009 M12/M15 A2978 RMK AO1 PRESFR SLP143
SPECI CYNL 141110Z AUTO ///// 3/4SM VV009 M12/M15 A2978 RMK AO1 PRESFR SLP143
SPECI CYNL 141107Z AUTO ///// 5/8SM VV009 M12/M15 A2978 RMK AO1 PRESFR SLP143
SPECI CYNL 141103Z AUTO ///// 5/8SM VV010 M12/M15 A2978 RMK AO1 PRESFR SLP144
METAR CYNL 141100Z AUTO ///// 3/4SM VV010 M12/M15 A2978 RMK AO1 PRESFR SLP144
SPECI CYNL 141059Z AUTO ///// 3/4SM VV009 M12/M15 A2978 RMK AO1 PRESFR SLP144
SPECI CYNL 141032Z AUTO ///// 5/8SM VV009 M12/M15 A2979 RMK AO1 PRESFR SLP147
SPECI CYNL 141026Z AUTO ///// 1/2SM VV010 M12/M15 A2980 RMK AO1 PRESFR SLP149
METAR CYNL 141000Z AUTO ///// 5/8SM VV009 M12/M15 A2982 RMK AO1 PRESFR SLP156
SPECI CYNL 140958Z AUTO ///// 3/4SM SCT003 BKN013 OVC017 M12/M15 A2982 RMK AO1 PRESFR SLP155
SPECI CYNL 140957Z AUTO ///// 1SM FEW003 SCT010 BKN014 M12/M15 A2982 RMK AO1 PRESFR SLP155
SPECI CYNL 140953Z AUTO ///// 1 1/4SM VV014 M12/M15 A2982 RMK AO1 PRESFR SLP155
SPECI CYNL 140952Z AUTO ///// 1 1/4SM FEW003 SCT010 OVC016 M12/M15 A2982 RMK AO1 PRESFR SLP156
SPECI CYNL 140944Z AUTO ///// 1 1/4SM VV017 M13/M15 A2983 RMK AO1 PRESFR SLP159
SPECI CYNL 140941Z AUTO ///// 1SM FEW002 BKN009 OVC018 M13/M15 A2983 RMK AO1 PRESFR SLP161
SPECI CYNL 140939Z AUTO ///// 3/4SM FEW002 BKN009 OVC017 M13/M15 A2983 RMK AO1 PRESFR SLP161
SPECI CYNL 140930Z AUTO ///// 1/2SM VV009 M13/M15 A2984 RMK AO1 PRESFR SLP165
SPECI CYNL 140927Z AUTO ///// 1/2SM VV010 M13/M15 A2985 RMK AO1 PRESFR SLP166
SPECI CYNL 140901Z AUTO ///// 1/2SM VV009 M13/M15 A2986 RMK AO1 PRESFR SLP170
METAR CYNL 140900Z AUTO ///// 5/8SM VV010 M13/M15 A2986 RMK AO1 PRESFR SLP171
SPECI CYNL 140859Z AUTO ///// 5/8SM VV010 M13/M15 A2986 RMK AO1 PRESFR SLP172
SPECI CYNL 140858Z AUTO ///// 5/8SM VV009 M13/M15 A2987 RMK AO1 PRESFR SLP172
SPECI CYNL 140857Z AUTO ///// 3/4SM VV009 M13/M15 A2987 RMK AO1 PRESFR SLP172
SPECI CYNL 140833Z AUTO ///// 5/8SM VV008 M13/M15 A2989 RMK AO1 PRESFR SLP181
SPECI CYNL 140826Z AUTO ///// 5/8SM BKN003 BKN018 OVC025 M13/M15 A2989 RMK AO1 PRESFR SLP182
SPECI CYNL 140824Z AUTO ///// 3/4SM BKN003 OVC025 M13/M15 A2989 RMK AO1 PRESFR SLP182
SPECI CYNL 140821Z AUTO ///// 1 1/4SM BKN003 OVC025 M13/M15 A2990 RMK AO1 PRESFR SLP183
SPECI CYNL 140820Z AUTO ///// 1 3/4SM BKN004 OVC025 M13/M15 A2990 RMK AO1 PRESFR SLP184
SPECI CYNL 140819Z AUTO ///// 2 1/2SM BKN004 OVC025 M12/M15 A2990 RMK AO1 PRESFR SLP184
SPECI CYNL 140816Z AUTO ///// 5SM BKN004 OVC025 M12/M15 A2990 RMK AO1 PRESFR SLP185
SPECI CYNL 140810Z AUTO ///// 3SM FEW003 BKN006 OVC026 M12/M15 A2991 RMK AO1 PRESFR SLP186
SPECI CYNL 140809Z AUTO ///// 3SM FEW003 SCT006 BKN017 M12/M15 A2991 RMK AO1 PRESFR SLP187
SPECI CYNL 140807Z AUTO ///// 3SM FEW003 SCT006 OVC026 M13/M15 A2991 RMK AO1 PRESFR SLP187
SPECI CYNL 140805Z AUTO ///// 2 1/2SM FEW003 SCT006 OVC026 M13/M15 A2991 RMK AO1 PRESFR SLP187
SPECI CYNL 140801Z AUTO ///// 3SM FEW003 SCT006 OVC027 M13/M15 A2991 RMK AO1 PRESFR SLP188
METAR CYNL 140800Z AUTO ///// 2 1/2SM FEW003 SCT006 OVC028 M13/M15 A2991 RMK AO1 PRESFR SLP188
SPECI CYNL 140759Z AUTO ///// 2SM FEW003 SCT006 BKN016 M13/M15 A2991 RMK AO1 PRESFR SLP189
SPECI CYNL 140758Z AUTO ///// 1 1/2SM FEW003 SCT006 BKN010 M13/M15 A2991 RMK AO1 PRESFR SLP189
SPECI CYNL 140754Z AUTO ///// 1SM SCT005 BKN010 OVC028 M13/M15 A2992 RMK AO1 PRESFR SLP190
SPECI CYNL 140753Z AUTO ///// 1 1/2SM SCT005 BKN010 OVC029 M13/M15 A2992 RMK AO1 PRESFR SLP190
SPECI CYNL 140752Z AUTO ///// 2SM SCT006 BKN014 OVC029 M13/M15 A2992 RMK AO1 PRESFR SLP190
SPECI CYNL 140747Z AUTO ///// 6SM FEW006 BKN016 BKN028 M13/M15 A2991 RMK AO1 PRESFR SLP189
SPECI CYNL 140744Z AUTO ///// 6SM FEW009 SCT015 OVC029 M13/M15 A2992 RMK AO1 PRESFR SLP191
SPECI CYNL 140743Z AUTO ///// 5SM FEW010 SCT015 OVC028 M13/M15 A2992 RMK AO1 PRESFR SLP191
SPECI CYNL 140741Z AUTO ///// 3SM FEW005 SCT015 BKN020 M13/M15 A2992 RMK AO1 PRESFR SLP192
SPECI CYNL 140739Z AUTO ///// 2SM FEW005 SCT009 BKN015 M13/M15 A2993 RMK AO1 PRESFR SLP193
SPECI CYNL 140738Z AUTO ///// 1 1/2SM FEW005 SCT010 BKN015 M13/M15 A2993 RMK AO1 PRESFR SLP193
SPECI CYNL 140736Z AUTO ///// 1SM FEW005 SCT010 BKN016 M13/M15 A2993 RMK AO1 PRESFR SLP194
SPECI CYNL 140735Z AUTO ///// 1SM FEW005 SCT010 BKN014 M13/M15 A2993 RMK AO1 PRESFR SLP195
SPECI CYNL 140730Z AUTO ///// 3/4SM VV012 M13/M15 A2993 RMK AO1 PRESFR SLP195
SPECI CYNL 140727Z AUTO ///// 1SM VV014 M13/M15 A2993 RMK AO1 PRESFR SLP196
SPECI CYNL 140725Z AUTO ///// 1 1/4SM VV016 M13/M15 A2993 RMK AO1 PRESFR SLP196
SPECI CYNL 140723Z AUTO ///// 1 3/4SM VV018 M13/M15 A2994 RMK AO1 PRESFR SLP197
SPECI CYNL 140721Z AUTO ///// 2 1/2SM FEW004 SCT006 OVC016 M13/M15 A2994 RMK AO1 PRESFR SLP198
SPECI CYNL 140719Z AUTO ///// 4SM FEW004 SCT006 OVC016 M13/M15 A2994 RMK AO1 PRESFR SLP199
SPECI CYNL 140710Z AUTO ///// 9SM SCT003 BKN006 OVC016 M13/M15 A2995 RMK AO1 PRESFR SLP201
SPECI CYNL 140705Z AUTO ///// 9SM SCT003 BKN006 BKN017 M13/M15 A2995 RMK AO1 PRESFR SLP202
METAR CYNL 140700Z AUTO ///// 9SM SCT003 BKN005 OVC033 M13/M15 A2996 RMK AO1 PRESFR SLP204
SPECI CYNL 140657Z AUTO ///// 9SM SCT003 BKN012 OVC033 M13/M16 A2996 RMK AO1 SLP205
SPECI CYNL 140652Z AUTO ///// 4SM SCT003 BKN017 OVC033 M13/M16 A2997 RMK AO1 SLP207
SPECI CYNL 140650Z AUTO ///// 3SM SCT003 OVC033 M13/M16 A2997 RMK AO1 SLP208
SPECI CYNL 140645Z AUTO ///// 2 1/2SM FEW003 SCT017 OVC033 M13/M16 A2997 RMK AO1 SLP210
SPECI CYNL 140641Z AUTO ///// 6SM FEW003 OVC033 M13/M16 A2997 RMK AO1 SLP210
SPECI CYNL 140626Z AUTO ///// 5SM FEW017 BKN030 OVC038 M13/M16 A2999 RMK AO1 SLP215
SPECI CYNL 140625Z AUTO ///// 3SM FEW017 BKN029 OVC038 M13/M16 A2999 RMK AO1 SLP215
SPECI CYNL 140621Z AUTO ///// 2SM FEW017 BKN028 OVC038 M14/M16 A2999 RMK AO1 SLP216
SPECI CYNL 140619Z AUTO ///// 2 1/2SM VV024 M14/M16 A2999 RMK AO1 SLP217
SPECI CYNL 140615Z AUTO ///// 3SM VV028 M14/M16 A3000 RMK AO1 SLP219
SPECI CYNL 140613Z AUTO ///// 3SM VV031 M14/M16 A3000 RMK AO1 SLP219
SPECI CYNL 140611Z AUTO ///// 2 1/2SM VV031 M14/M16 A3000 RMK AO1 SLP220
SPECI CYNL 140607Z AUTO ///// 3SM VV032 M14/M16 A3000 RMK AO1 SLP220
METAR CYNL 140600Z AUTO ///// 2 1/2SM VV034 M14/M16 A3001 RMK AO1 SLP222
SPECI CYNL 140559Z AUTO ///// 2 1/2SM VV034 M14/M16 A3001 RMK AO1 SLP223
SPECI CYNL 140552Z AUTO ///// 3SM VV030 M14/M16 A3001 RMK AO1 PRESFR SLP226
SPECI CYNL 140542Z AUTO ///// 3SM VV029 M14/M16 A3002 RMK AO1 PRESFR SLP227
SPECI CYNL 140533Z AUTO ///// 6SM VV031 M14/M16 A3002 RMK AO1 PRESFR SLP228
SPECI CYNL 140531Z AUTO ///// 8SM VV025 M14/M16 A3002 RMK AO1 PRESFR SLP228
SPECI CYNL 140502Z AUTO ///// 8SM SCT008 OVC044 M14/M17 A3002 RMK AO1 PRESFR SLP228
SPECI CYNL 140501Z AUTO ///// 8SM SCT008 BKN015 OVC044 M14/M17 A3002 RMK AO1 PRESFR SLP229
METAR CYNL 140500Z AUTO ///// 8SM SCT008 BKN012 OVC044 M14/M17 A3002 RMK AO1 PRESFR SLP229
SPECI CYNL 140455Z AUTO ///// 5SM SCT008 BKN011 BKN036 M14/M17 A3002 RMK AO1 PRESFR SLP231
SPECI CYNL 140446Z AUTO ///// 3SM VV009 M14/M17 A3002 RMK AO1 PRESFR SLP230
SPECI CYNL 140444Z AUTO ///// 3SM VV010 M14/M17 A3002 RMK AO1 PRESFR SLP229
SPECI CYNL 140440Z AUTO ///// 2 1/2SM VV012 M14/M17 A3002 RMK AO1 PRESFR SLP230
SPECI CYNL 140439Z AUTO ///// 3SM VV012 M14/M17 A3002 RMK AO1 PRESFR SLP231
SPECI CYNL 140430Z AUTO ///// 3SM VV018 M14/M17 A3003 RMK AO1 PRESFR SLP233
SPECI CYNL 140429Z AUTO ///// 3SM VV014 M14/M17 A3003 RMK AO1 PRESFR SLP233
SPECI CYNL 140428Z AUTO ///// 2 1/2SM VV011 M14/M17 A3003 RMK AO1 PRESFR SLP234
SPECI CYNL 140426Z AUTO ///// 2 1/2SM VV019 M14/M17 A3003 RMK AO1 PRESFR SLP235
SPECI CYNL 140422Z AUTO ///// 3SM VV023 M14/M17 A3004 RMK AO1 PRESFR SLP236
SPECI CYNL 140421Z AUTO ///// 3SM VV025 M14/M17 A3004 RMK AO1 PRESFR SLP235
METAR CYNL 140400Z AUTO ///// 7SM OVC011 M14/M17 A3004 RMK AO1 PRESFR SLP238
METAR CYNL 140300Z AUTO ///// 4SM VV012 M14/M17 A3008 RMK AO1 PRESFR SLP252
SPECI CYNL 140244Z AUTO ///// 7SM VV011 M14/M17 A3008 RMK AO1 PRESFR SLP252
SPECI CYNL 140227Z AUTO ///// 9SM SCT013 OVC050 M14/M17 A3009 RMK AO1 PRESFR SLP256
METAR CYNL 140200Z AUTO ///// 9SM BKN014 M14/M17 A3011 RMK AO1 PRESFR SLP262
SPECI CYNL 140156Z AUTO ///// 9SM BKN014 M14/M17 A3011 RMK AO1 SLP263
SPECI CYNL 140141Z AUTO ///// 9SM SCT014 M14/M17 A3011 RMK AO1 SLP261
SPECI CYNL 140120Z AUTO ///// 9SM BKN014 BKN062 M14/M17 A3012 RMK AO1 SLP264
METAR CYNL 140100Z AUTO ///// 9SM SCT011 OVC064 M14/M17 A3013 RMK AO1 SLP270
SPECI CYNL 140052Z AUTO ///// 9SM SCT011 OVC064 M14/M17 A3014 RMK AO1 SLP272
METAR CYNL 140000Z AUTO 11007KT 9SM BKN012 M14/M17 A3015 RMK AO1 SLP277
SPECI CYNL 132351Z AUTO 11005KT 9SM BKN012 M14/M17 A3015 RMK AO1 PRESFR SLP279
METAR CYNL 132300Z AUTO ///// 9SM SCT013 M14/M17 A3016 RMK AO1 PRESFR SLP279
SPECI CYNL 132252Z AUTO 12006KT 9SM BKN014 M14/M17 A3017 RMK AO1 SLP281
SPECI CYNL 132232Z AUTO 12005KT 9SM SCT013 M14/M17 A3016 RMK AO1 SLP280
METAR CYNL 132200Z AUTO 13005KT 9SM OVC013 M14/M17 A3018 RMK AO1 SLP286
METAR CYNL 132100Z AUTO 13005KT 9SM OVC012 M13/M17 A3019 RMK AO1 PRESFR SLP286
METAR CYNL 132000Z AUTO 13003KT 9SM OVC011 M14/M17 A3021 RMK AO1 SLP293
METAR CYNL 131900Z AUTO 12004KT 9SM OVC011 M13/M17 A3022 RMK AO1 SLP303
METAR CYNL 131800Z AUTO 08004KT 9SM OVC011 M14/M17 A3023 RMK AO1 SLP309
METAR CYNL 131700Z AUTO 08005KT 9SM BKN013 OVC015 M16/M18 A3024 RMK AO1 SLP313
SPECI CYNL 131648Z AUTO 08004KT 9SM BKN012 M16/M19 A3024 RMK AO1 SLP314
SPECI CYNL 131639Z AUTO 07004KT 9SM FEW012 SCT015 BKN018 M17/M19 A3024 RMK AO1 SLP314
METAR CYNL 131600Z AUTO 05003KT 9SM CLR M17/M20 A3024 RMK AO1 SLP315
METAR CYNL 131500Z AUTO 00000KT 9SM CLR M17/M19 A3025 RMK AO1 SLP318
METAR CYNL 131400Z AUTO 05003KT 9SM CLR M16/M19 A3025 RMK AO1 SLP317
METAR CYNL 131300Z AUTO 02007KT 9SM BKN140 M17/M20 A3026 RMK AO1 SLP321
METAR CYNL 131200Z AUTO 02005KT 9SM FEW031 M17/M20 A3026 RMK AO1 SLP319
METAR CYNL 131100Z AUTO 02003KT 9SM OVC030 M17/M19 A3026 RMK AO1 SLP317
SPECI CYNL 131029Z AUTO 01004KT 9SM OVC030 M16/M18 A3026 RMK AO1 SLP311
METAR CYNL 131000Z AUTO 01004KT 9SM OVC029 M15/M17 A3026 RMK AO1 SLP309
SPECI CYNL 130938Z AUTO 01006KT 9SM OVC029 M14/M17 A3026 RMK AO1 SLP304
METAR CYNL 130900Z AUTO 34005KT 9SM OVC031 M15/M17 A3026 RMK AO1 SLP306
METAR CYNL 130800Z AUTO 00000KT 9SM OVC032 M19/M22 A3026 RMK AO1 SLP311
METAR CYNL 130700Z AUTO 26003KT 9SM OVC035 M20/M23 A3026 RMK AO1 SLP312
METAR CYNL 130600Z AUTO 24003KT 9SM OVC039 M19/M22 A3025 RMK AO1 SLP310
METAR CYNL 130500Z AUTO 23007KT 9SM OVC041 M20/M23 A3026 RMK AO1 SLP314
METAR CYNL 130400Z AUTO 23005KT 9SM CLR M21/M24 A3026 RMK AO1 SLP318
METAR CYNL 130300Z AUTO 25004KT 9SM CLR M20/M23 A3027 RMK AO1 SLP317
METAR CYNL 130200Z AUTO 24006KT 9SM CLR M20/M23 A3027 RMK AO1 SLP321
METAR CYNL 130100Z AUTO 24004KT 9SM CLR M18/M21 A3028 RMK AO1 SLP320
METAR CYNL 130000Z AUTO 23004KT 9SM CLR M17/M20 A3028 RMK AO1 SLP319
METAR CYNL 122300Z AUTO 23004KT 9SM CLR M14/M18 A3028 RMK AO1 SLP316
METAR CYNL 122200Z AUTO 23003KT 9SM CLR M10/M17 A3029 RMK AO1 SLP313
METAR CYNL 122100Z AUTO 22004KT 9SM CLR M10/M16 A3030 RMK AO1 SLP315
METAR CYNL 122000Z AUTO 24008KT 9SM OVC047 M10/M16 A3031 RMK AO1 SLP318
METAR CYNL 121900Z AUTO 26006KT 9SM OVC048 M10/M15 A3031 RMK AO1 SLP320
METAR CYNL 121800Z AUTO 25007KT 9SM OVC049 M11/M15 A3031 RMK AO1 PRESFR SLP321
METAR CYNL 121700Z AUTO 23005KT 9SM OVC048 M12/M15 A3033 RMK AO1 SLP329
METAR CYNL 121600Z AUTO 27004KT 9SM OVC049 M13/M16 A3034 RMK AO1 SLP332
METAR CYNL 121500Z AUTO 25005KT 9SM OVC046 M13/M16 A3035 RMK AO1 SLP335
METAR CYNL 121400Z AUTO 28004KT 9SM OVC048 M13/M16 A3035 RMK AO1 SLP337
METAR CYNL 121300Z AUTO 24006KT 9SM OVC048 M13/M15 A3035 RMK AO1 SLP336
METAR CYNL 121200Z AUTO 28004KT 9SM OVC048 M13/M16 A3036 RMK AO1 SLP339
METAR CYNL 121100Z AUTO 27003KT 9SM OVC048 M12/M15 A3037 RMK AO1 SLP344
SPECI CYNL 121019Z AUTO 28005KT 4SM FEW008 SCT024 OVC043 M12/M15 A3038 RMK AO1 SLP345
SPECI CYNL 121011Z AUTO 28006KT 4SM VV022 M12/M15 A3038 RMK AO1 SLP345
METAR CYNL 121000Z AUTO 28006KT 9SM OVC044 M12/M15 A3037 RMK AO1 SLP344
SPECI CYNL 120941Z AUTO 28006KT 9SM FEW007 BKN044 M12/M15 A3037 RMK AO1 SLP342
METAR CYNL 120900Z AUTO ///// 9SM FEW026 OVC042 M12/M15 A3038 RMK AO1 SLP344
METAR CYNL 120800Z AUTO 28008KT 9SM FEW011 SCT015 OVC043 M12/M14 A3037 RMK AO1 SLP342
SPECI CYNL 120755Z AUTO 28008KT 7SM SCT012 OVC043 M12/M14 A3037 RMK AO1 SLP342
SPECI CYNL 120751Z AUTO ///// 9SM SCT012 BKN020 OVC043 M12/M14 A3037 RMK AO1 SLP342
SPECI CYNL 120728Z AUTO 28007KT 5SM VV014 M12/M14 A3038 RMK AO1 SLP344
SPECI CYNL 120727Z AUTO 28007KT 3SM VV015 M11/M14 A3038 RMK AO1 SLP344
SPECI CYNL 120722Z AUTO 29007KT 2 1/2SM VV018 M12/M14 A3038 RMK AO1 SLP344
SPECI CYNL 120711Z AUTO 28005KT 5SM VV016 M12/M14 A3038 RMK AO1 SLP344
SPECI CYNL 120702Z AUTO 28006KT 8SM FEW008 BKN012 OVC045 M12/M14 A3038 RMK AO1 SLP344
METAR CYNL 120700Z AUTO 28006KT 8SM FEW008 SCT011 BKN017 M12/M14 A3038 RMK AO1 SLP344
SPECI CYNL 120651Z AUTO 28006KT 9SM FEW008 SCT011 BKN017 M12/M15 A3037 RMK AO1 SLP344
SPECI CYNL 120639Z AUTO 27006KT 5SM VV014 M12/M15 A3038 RMK AO1 SLP345
SPECI CYNL 120635Z AUTO 28005KT 3SM VV017 M12/M15 A3038 RMK AO1 SLP346
SPECI CYNL 120634Z AUTO 28005KT 2SM VV017 M12/M15 A3038 RMK AO1 SLP346
SPECI CYNL 120632Z AUTO 28006KT 1 3/4SM VV019 M12/M15 A3038 RMK AO1 SLP346
SPECI CYNL 120631Z AUTO 28006KT 2 1/2SM VV019 M12/M15 A3038 RMK AO1 SLP346
SPECI CYNL 120630Z AUTO 28005KT 3SM VV019 M12/M15 A3038 RMK AO1 SLP346
SPECI CYNL 120628Z AUTO 28007KT 2 1/2SM VV020 M12/M15 A3038 RMK AO1 SLP346
SPECI CYNL 120616Z AUTO 27005KT 5SM VV016 M12/M15 A3038 RMK AO1 SLP344
SPECI CYNL 120615Z AUTO 27005KT 7SM VV014 M12/M15 A3038 RMK AO1 SLP344
SPECI CYNL 120608Z AUTO 28006KT 9SM FEW007 BKN045 M12/M15 A3038 RMK AO1 SLP344
METAR CYNL 120600Z AUTO 28005KT 9SM BKN046 M12/M15 A3037 RMK AO1 SLP343
SPECI CYNL 120518Z AUTO 28005KT 8SM FEW006 SCT027 BKN046 M12/M15 A3038 RMK AO1 SLP346
SPECI CYNL 120513Z AUTO 29004KT 8SM VV022 M12/M15 A3038 RMK AO1 SLP346
METAR CYNL 120500Z AUTO 27004KT 9SM FEW014 SCT047 M12/M15 A3037 RMK AO1 SLP345
SPECI CYNL 120428Z AUTO 25002KT 8SM SCT006 BKN037 M12/M14 A3038 RMK AO1 SLP348
SPECI CYNL 120425Z AUTO 00000KT 9SM SCT006 BKN028 BKN048 M12/M14 A3038 RMK AO1 SLP349
SPECI CYNL 120423Z AUTO 00000KT 9SM SCT006 BKN037 BKN048 M12/M14 A3038 RMK AO1 SLP348
SPECI CYNL 120420Z AUTO 00000KT 9SM SCT007 BKN028 OVC048 M12/M14 A3038 RMK AO1 SLP348
SPECI CYNL 120419Z AUTO 00000KT 9SM SCT007 BKN018 OVC048 M12/M14 A3038 RMK AO1 SLP348
SPECI CYNL 120415Z AUTO 27003KT 9SM VV009 M12/M14 A3038 RMK AO1 SLP348
SPECI CYNL 120414Z AUTO 27002KT 6SM VV012 M12/M14 A3038 RMK AO1 SLP348
SPECI CYNL 120413Z AUTO 27002KT 3SM VV015 M12/M14 A3038 RMK AO1 SLP348
SPECI CYNL 120411Z AUTO 28003KT 2 1/2SM VV022 M12/M14 A3038 RMK AO1 SLP348
SPECI CYNL 120408Z AUTO 28003KT 6SM VV027 M12/M14 A3038 RMK AO1 SLP348
SPECI CYNL 120407Z AUTO 28004KT 6SM VV024 M12/M14 A3038 RMK AO1 SLP348
METAR CYNL 120400Z AUTO 29004KT 7SM FEW006 SCT011 OVC048 M12/M14 A3038 RMK AO1 SLP348
SPECI CYNL 120353Z AUTO 29003KT 9SM FEW006 SCT016 OVC047 M12/M14 A3038 RMK AO1 SLP349
SPECI CYNL 120347Z AUTO 30004KT 9SM FEW008 SCT017 BKN025 M12/M14 A3038 RMK AO1 SLP349
SPECI CYNL 120342Z AUTO 31005KT 9SM FEW011 SCT017 BKN026 M12/M14 A3038 RMK AO1 SLP349
SPECI CYNL 120336Z AUTO 32005KT 9SM FEW011 SCT017 BKN023 M12/M14 A3038 RMK AO1 SLP349
SPECI CYNL 120331Z AUTO 32005KT 9SM VV014 M12/M14 A3038 RMK AO1 SLP349
SPECI CYNL 120323Z AUTO 31006KT 4SM VV023 M12/M14 A3038 RMK AO1 SLP349
SPECI CYNL 120322Z AUTO 31006KT 2 1/2SM VV023 M12/M14 A3038 RMK AO1 SLP349
SPECI CYNL 120321Z AUTO 31006KT 1 3/4SM VV023 M12/M14 A3038 RMK AO1 SLP349
SPECI CYNL 120320Z AUTO 32005KT 2SM VV024 M12/M14 A3038 RMK AO1 SLP349
SPECI CYNL 120316Z AUTO 31006KT 3SM VV025 M12/M14 A3038 RMK AO1 SLP349
SPECI CYNL 120315Z AUTO 31006KT 2 1/2SM VV025 M12/M14 A3038 RMK AO1 SLP350
SPECI CYNL 120314Z AUTO 31007KT 2SM VV024 M12/M14 A3038 RMK AO1 SLP350
SPECI CYNL 120311Z AUTO 30006KT 1 3/4SM VV021 M12/M14 A3038 RMK AO1 SLP350
SPECI CYNL 120302Z AUTO 30004KT 2SM VV019 M12/M14 A3038 RMK AO1 SLP351
METAR CYNL 120300Z AUTO 30004KT 1 3/4SM VV020 M12/M14 A3038 RMK AO1 SLP351
SPECI CYNL 120259Z AUTO 31005KT 1 3/4SM VV021 M12/M14 A3038 RMK AO1 SLP352
SPECI CYNL 120258Z AUTO 30006KT 2 1/2SM VV021 M12/M14 A3038 RMK AO1 SLP353
SPECI CYNL 120252Z AUTO 30005KT 3SM VV019 M12/M14 A3038 RMK AO1 SLP353
SPECI CYNL 120251Z AUTO 30005KT 2 1/2SM VV017 M12/M14 A3038 RMK AO1 SLP353
SPECI CYNL 120236Z AUTO 30006KT 6SM VV016 M12/M14 A3038 RMK AO1 SLP353
SPECI CYNL 120230Z AUTO 29005KT 7SM VV010 M12/M14 A3038 RMK AO1 SLP353
SPECI CYNL 120229Z AUTO 29004KT 7SM VV009 M12/M14 A3038 RMK AO1 SLP353
SPECI CYNL 120222Z AUTO 31006KT 9SM VV011 M12/M14 A3038 RMK AO1 SLP353
SPECI CYNL 120208Z AUTO 32005KT 9SM FEW008 SCT047 M12/M14 A3038 RMK AO1 SLP353
METAR CYNL 120200Z AUTO 32006KT 9SM FEW011 SCT047 M11/M15 A3038 RMK AO1 SLP352
SPECI CYNL 120143Z AUTO 31007KT 9SM FEW008 SCT015 BKN037 M11/M14 A3038 RMK AO1 SLP353
SPECI CYNL 120133Z AUTO 32009KT 9SM FEW009 SCT014 BKN019 M11/M14 A3039 RMK AO1 SLP355
SPECI CYNL 120129Z AUTO 32008KT 4SM VV014 M11/M14 A3039 RMK AO1 SLP356
SPECI CYNL 120117Z AUTO 31006KT 3SM VV021 M11/M14 A3039 RMK AO1 SLP355
SPECI CYNL 120116Z AUTO 31006KT 2 1/2SM VV022 M11/M14 A3039 RMK AO1 SLP355
SPECI CYNL 120112Z AUTO 32004KT 5SM VV024 M11/M14 A3039 RMK AO1 SLP355
SPECI CYNL 120111Z AUTO 31005KT 5SM VV025 M11/M14 A3039 RMK AO1 SLP355
SPECI CYNL 120110Z AUTO 31005KT 5SM VV024 M11/M14 A3039 RMK AO1 SLP355
SPECI CYNL 120106Z AUTO 30006KT 3SM VV025 M11/M14 A3039 RMK AO1 SLP356
METAR CYNL 120100Z AUTO 31006KT 5SM VV024 M11/M14 A3039 RMK AO1 SLP355
SPECI CYNL 120049Z AUTO 31006KT 7SM VV016 M11/M14 A3039 RMK AO1 SLP355
SPECI CYNL 120048Z AUTO 31007KT 6SM VV014 M11/M14 A3039 RMK AO1 SLP355
SPECI CYNL 120046Z AUTO 31007KT 7SM VV015 M11/M14 A3039 RMK AO1 SLP355
SPECI CYNL 120045Z AUTO 31006KT 7SM VV014 M11/M14 A3039 RMK AO1 SLP355
SPECI CYNL 120040Z AUTO 31005KT 7SM VV015 M11/M14 A3039 RMK AO1 SLP355
SPECI CYNL 120034Z AUTO 30005KT 8SM VV010 M11/M14 A3039 RMK AO1 SLP356
SPECI CYNL 120033Z AUTO 29005KT 9SM FEW008 SCT010 BKN050 M11/M14 A3039 RMK AO1 SLP355
SPECI CYNL 120032Z AUTO 30003KT 9SM VV009 M11/M14 A3039 RMK AO1 SLP355
SPECI CYNL 120024Z AUTO 30005KT 4SM VV011 M11/M14 A3039 RMK AO1 SLP355
SPECI CYNL 120008Z AUTO 32007KT 7SM FEW007 SCT013 BKN050 M11/M14 A3038 RMK AO1 SLP354
SPECI CYNL 120006Z AUTO 31006KT 9SM FEW005 SCT013 BKN018 M11/M14 A3038 RMK AO1 SLP353
METAR CYNL 120000Z AUTO 30005KT 7SM FEW006 SCT009 BKN013 M11/M14 A3038 RMK AO1 SLP353
SPECI CYNL 112358Z AUTO 31005KT 6SM FEW006 SCT009 BKN014 M11/M14 A3038 RMK AO1 SLP352
SPECI CYNL 112355Z AUTO 31006KT 3SM VV012 M11/M14 A3038 RMK AO1 SLP351
SPECI CYNL 112354Z AUTO 31006KT 2SM VV013 M11/M14 A3038 RMK AO1 SLP352
SPECI CYNL 112345Z AUTO 32006KT 1 1/4SM VV010 M11/M14 A3038 RMK AO1 SLP351
SPECI CYNL 112344Z AUTO 33006KT 1SM VV009 M11/M14 A3038 RMK AO1 SLP350
SPECI CYNL 112343Z AUTO 32006KT 3/4SM VV007 M11/M14 A3038 RMK AO1 SLP350
SPECI CYNL 112336Z AUTO 32007KT 3/8SM VV009 M11/M14 A3038 RMK AO1 SLP351
SPECI CYNL 112333Z AUTO 32006KT 5/8SM VV012 M11/M14 A3038 RMK AO1 SLP351
SPECI CYNL 112332Z AUTO 32005KT 3/4SM VV012 M11/M14 A3038 RMK AO1 SLP351
SPECI CYNL 112328Z AUTO 32006KT 1SM VV014 M11/M14 A3038 RMK AO1 SLP350
SPECI CYNL 112326Z AUTO 32006KT 3/4SM VV014 M11/M14 A3038 RMK AO1 SLP350
SPECI CYNL 112325Z AUTO 32005KT 3/4SM VV015 M11/M14 A3038 RMK AO1 SLP350
SPECI CYNL 112320Z AUTO 31008KT 1SM VV016 M11/M14 A3037 RMK AO1 SLP349
SPECI CYNL 112319Z AUTO 31008KT 3/4SM VV016 M11/M14 A3037 RMK AO1 SLP349
SPECI CYNL 112315Z AUTO 30007KT 1 1/4SM VV015 M11/M14 A3037 RMK AO1 SLP349
SPECI CYNL 112312Z AUTO 32006KT 1 1/4SM VV014 M11/M14 A3037 RMK AO1 SLP349
SPECI CYNL 112311Z AUTO 31006KT 1 1/4SM VV015 M11/M14 A3037 RMK AO1 SLP349
SPECI CYNL 112310Z AUTO 30008KT 3/4SM VV015 M11/M14 A3037 RMK AO1 SLP349
SPECI CYNL 112309Z AUTO 30008KT 5/8SM VV016 M11/M14 A3037 RMK AO1 SLP349
SPECI CYNL 112308Z AUTO 30009KT 3/4SM VV018 M11/M14 A3037 RMK AO1 SLP349
SPECI CYNL 112306Z AUTO 31006KT 1 3/4SM VV021 M11/M14 A3037 RMK AO1 SLP349
SPECI CYNL 112303Z AUTO 31006KT 2 1/2SM VV020 M11/M14 A3037 RMK AO1 SLP350
METAR CYNL 112300Z AUTO 30006KT 4SM VV017 M11/M14 A3037 RMK AO1 SLP349
SPECI CYNL 112258Z AUTO 30007KT 4SM VV016 M11/M14 A3037 RMK AO1 SLP349
SPECI CYNL 112256Z AUTO 30006KT 3SM VV013 M11/M14 A3037 RMK AO1 SLP349
SPECI CYNL 112255Z AUTO 30008KT 2 1/2SM VV012 M11/M14 A3037 RMK AO1 SLP349
SPECI CYNL 112253Z AUTO 30006KT 1 1/2SM VV011 M11/M14 A3037 RMK AO1 SLP349
SPECI CYNL 112250Z AUTO 30005KT 1/2SM VV011 M11/M14 A3037 RMK AO1 SLP349
SPECI CYNL 112249Z AUTO 30004KT 3/4SM VV011 M11/M14 A3038 RMK AO1 SLP350
SPECI CYNL 112246Z AUTO 32006KT 1SM VV010 M11/M14 A3038 RMK AO1 SLP350
SPECI CYNL 112245Z AUTO 32005KT 3/4SM VV009 M11/M14 A3037 RMK AO1 SLP349
SPECI CYNL 112243Z AUTO 31005KT 1/2SM VV009 M11/M14 A3037 RMK AO1 SLP349
SPECI CYNL 112241Z AUTO 31005KT 5/8SM VV011 M11/M14 A3037 RMK AO1 SLP349
SPECI CYNL 112239Z AUTO 30008KT 3/4SM VV012 M11/M14 A3037 RMK AO1 SLP349
SPECI CYNL 112237Z AUTO 30009KT 1 1/4SM VV014 M11/M14 A3037 RMK AO1 SLP348
SPECI CYNL 112235Z AUTO 29009KT 1 1/2SM VV017 M11/M14 A3037 RMK AO1 SLP349
SPECI CYNL 112232Z AUTO 30008KT 1SM VV018 M11/M14 A3037 RMK AO1 SLP348
SPECI CYNL 112230Z AUTO 29009KT 1 3/4SM VV019 M11/M14 A3037 RMK AO1 SLP348
SPECI CYNL 112227Z AUTO 30007KT 2 1/2SM VV019 M11/M14 A3037 RMK AO1 SLP347
SPECI CYNL 112215Z AUTO 29008KT 3SM VV018 M11/M14 A3036 RMK AO1 SLP346
SPECI CYNL 112214Z AUTO 29006KT 2SM VV017 M11/M14 A3036 RMK AO1 SLP346
SPECI CYNL 112213Z AUTO 29006KT 1 1/2SM VV015 M11/M14 A3036 RMK AO1 SLP346
SPECI CYNL 112209Z AUTO 29007KT 1SM VV011 M11/M14 A3036 RMK AO1 SLP345
SPECI CYNL 112204Z AUTO 29007KT 5/8SM VV013 M11/M14 A3036 RMK AO1 SLP345
SPECI CYNL 112203Z AUTO 29008KT 3/4SM VV014 M11/M14 A3036 RMK AO1 SLP345
METAR CYNL 112200Z AUTO 29007KT 1 1/4SM VV018 M11/M15 A3036 RMK AO1 SLP345
SPECI CYNL 112159Z AUTO ///// 1 3/4SM VV018 M11/M15 A3036 RMK AO1 SLP344
SPECI CYNL 112157Z AUTO ///// 2 1/2SM FEW017 SCT025 BKN038 M11/M15 A3036 RMK AO1 SLP343
SPECI CYNL 112144Z AUTO 30011KT 9SM FEW011 SCT027 BKN031 M11/M15 A3036 RMK AO1 SLP342
SPECI CYNL 112130Z AUTO ///// 9SM FEW008 SCT017 BKN027 M12/M15 A3035 RMK AO1 SLP340
SPECI CYNL 112128Z AUTO 31010KT 7SM FEW010 SCT017 BKN027 M12/M15 A3035 RMK AO1 SLP340
SPECI CYNL 112127Z AUTO 31008KT 6SM FEW010 SCT017 OVC031 M12/M15 A3035 RMK AO1 SLP339
SPECI CYNL 112114Z AUTO ///// 4SM FEW007 BKN026 OVC035 M12/M15 A3034 RMK AO1 SLP338
SPECI CYNL 112110Z AUTO ///// 9SM FEW007 SCT026 OVC035 M11/M15 A3034 RMK AO1 SLP338
SPECI CYNL 112108Z AUTO ///// 8SM FEW008 BKN026 OVC035 M11/M15 A3034 RMK AO1 SLP337
SPECI CYNL 112107Z AUTO ///// 8SM BKN026 OVC035 M11/M15 A3034 RMK AO1 SLP337
SPECI CYNL 112105Z AUTO ///// 9SM SCT026 OVC035 M11/M15 A3034 RMK AO1 SLP337
SPECI CYNL 112104Z AUTO ///// 9SM BKN026 BKN035 M11/M15 A3034 RMK AO1 SLP337
METAR CYNL 112100Z AUTO ///// 9SM SCT026 BKN036 M11/M16 A3034 RMK AO1 SLP337
SPECI CYNL 112051Z AUTO ///// 9SM BKN026 M11/M16 A3034 RMK AO1 SLP336
METAR CYNL 112000Z AUTO ///// 9SM SCT020 OVC046 M12/M16 A3032 RMK AO1 SLP329
METAR CYNL 111900Z AUTO ///// 9SM BKN019 OVC024 M12/M16 A3031 RMK AO1 SLP327
METAR CYNL 111800Z AUTO ///// 9SM OVC017 M12/M16 A3030 RMK AO1 SLP323
SPECI CYNL 111735Z AUTO ///// 9SM BKN018 BKN045 M13/M17 A3029 RMK AO1 SLP320
METAR CYNL 111700Z AUTO ///// 9SM OVC044 M14/M17 A3028 RMK AO1 SLP318
METAR CYNL 111600Z AUTO ///// 9SM OVC037 M15/M18 A3027 RMK AO1 SLP313
SPECI CYNL 111540Z AUTO ///// 9SM SCT016 OVC035 M16/M19 A3026 RMK AO1 PRESRR SLP311
METAR CYNL 111500Z AUTO 31010KT 9SM OVC016 M17/M20 A3026 RMK AO1 PRESRR SLP311
SPECI CYNL 111436Z AUTO 29009G16KT 9SM BKN016 M17/M20 A3024 RMK AO1 PRESRR SLP307
SPECI CYNL 111431Z AUTO 34009G16KT 9SM SCT017 BKN028 M17/M20 A3025 RMK AO1 PRESRR SLP307
SPECI CYNL 111417Z AUTO 31009G16KT 9SM SCT027 BKN035 M17/M20 A3023 RMK AO1 PRESRR SLP303
SPECI CYNL 111401Z AUTO 30008KT 9SM OVC025 M17/M20 A3023 RMK AO1 PRESRR SLP300
METAR CYNL 111400Z AUTO 31007KT 9SM OVC024 M17/M20 A3022 RMK AO1 PRESRR SLP300
METAR CYNL 111300Z AUTO 33009G17KT 9SM OVC018 M18/M21 A3020 RMK AO1 PRESRR SLP294
SPECI CYNL 111204Z AUTO ///// 3SM OVC017 M17/M20 A3018 RMK AO1 PRESRR SLP286
SPECI CYNL 111203Z AUTO ///// 2 1/2SM OVC017 M17/M20 A3018 RMK AO1 PRESRR SLP285
METAR CYNL 111200Z AUTO ///// 5SM OVC017 M17/M20 A3018 RMK AO1 PRESRR SLP284
SPECI CYNL 111147Z AUTO ///// 3SM OVC017 M17/M20 A3017 RMK AO1 PRESRR SLP281
SPECI CYNL 111144Z AUTO ///// 2 1/2SM OVC017 M17/M20 A3017 RMK AO1 PRESRR SLP281
METAR CYNL 111100Z AUTO 32009G17KT 9SM BKN018 OVC023 M17/M20 A3016 RMK AO1 PRESRR SLP275
SPECI CYNL 111045Z AUTO ///// 3SM OVC019 M16/M20 A3015 RMK AO1 PRESRR SLP272
SPECI CYNL 111043Z AUTO ///// 2 1/2SM BKN019 OVC024 M16/M20 A3015 RMK AO1 PRESRR SLP273
SPECI CYNL 111040Z AUTO ///// 5SM BKN019 OVC024 M16/M20 A3015 RMK AO1 PRESRR SLP272
SPECI CYNL 111039Z AUTO ///// 2SM VV020 M16/M20 A3015 RMK AO1 PRESRR SLP272
SPECI CYNL 111036Z AUTO 31009KT 1 1/4SM BKN019 OVC024 M16/M20 A3015 RMK AO1 PRESRR SLP272
SPECI CYNL 111035Z AUTO ///// 1 3/4SM OVC020 M16/M20 A3015 RMK AO1 PRESRR SLP272
METAR CYNL 111000Z AUTO ///// 3SM OVC017 M16/M19 A3013 RMK AO1 PRESRR SLP264
METAR CYNL 110900Z AUTO ///// 9SM OVC017 M15/M18 A3010 RMK AO1 PRESRR SLP252
METAR CYNL 110800Z AUTO ///// 9SM OVC017 M14/M18 A3008 RMK AO1 SLP243
SPECI CYNL 110726Z AUTO ///// 9SM OVC015 M14/M17 A3007 RMK AO1 PRESRR SLP240
SPECI CYNL 110718Z AUTO ///// 3SM OVC014 M14/M17 A3006 RMK AO1 PRESRR SLP239
METAR CYNL 110700Z AUTO ///// 5SM OVC015 M14/M17 A3006 RMK AO1 PRESRR SLP237
SPECI CYNL 110606Z AUTO ///// 8SM OVC015 M14/M17 A3003 RMK AO1 PRESRR SLP227
SPECI CYNL 110603Z AUTO ///// 8SM OVC014 M14/M17 A3003 RMK AO1 PRESRR SLP227
SPECI CYNL 110602Z AUTO ///// 9SM OVC015 M14/M17 A3003 RMK AO1 PRESRR SLP227
SPECI CYNL 110601Z AUTO ///// 9SM OVC014 M14/M17 A3003 RMK AO1 PRESRR SLP227
METAR CYNL 110600Z AUTO ///// 9SM OVC015 M14/M17 A3003 RMK AO1 PRESRR SLP226
SPECI CYNL 110535Z AUTO ///// 6SM OVC015 M13/M16 A3001 RMK AO1 SLP219
SPECI CYNL 110532Z AUTO ///// 9SM OVC014 M13/M16 A3001 RMK AO1 SLP219
SPECI CYNL 110530Z AUTO ///// 9SM OVC015 M13/M16 A3001 RMK AO1 SLP219
SPECI CYNL 110504Z AUTO 31008KT 9SM BKN014 OVC018 M13/M16 A3000 RMK AO1 SLP217
METAR CYNL 110500Z AUTO ///// 9SM SCT014 OVC018 M13/M16 A3000 RMK AO1 SLP217
SPECI CYNL 110450Z AUTO ///// 9SM FEW009 OVC015 M13/M16 A3000 RMK AO1 SLP216
SPECI CYNL 110434Z AUTO ///// 6SM SCT009 OVC014 M13/M16 A3000 RMK AO1 SLP215
SPECI CYNL 110431Z AUTO ///// 3SM VV010 M13/M16 A2999 RMK AO1 SLP214
SPECI CYNL 110428Z AUTO 30007KT 3SM VV009 M13/M16 A2999 RMK AO1 SLP214
SPECI CYNL 110424Z AUTO 30006KT 4SM VV014 M13/M16 A2999 RMK AO1 SLP213
SPECI CYNL 110420Z AUTO ///// 4SM VV015 M13/M16 A2999 RMK AO1 SLP213
SPECI CYNL 110419Z AUTO ///// 3SM VV014 M13/M16 A2999 RMK AO1 SLP213
SPECI CYNL 110417Z AUTO ///// 2SM VV012 M13/M16 A2999 RMK AO1 SLP213
SPECI CYNL 110407Z AUTO 31007KT 3SM VV013 M13/M16 A2999 RMK AO1 SLP212
SPECI CYNL 110405Z AUTO ///// 2SM VV011 M13/M16 A2999 RMK AO1 SLP211
METAR CYNL 110400Z AUTO 31008KT 1 1/2SM VV011 M13/M16 A2999 RMK AO1 SLP211
SPECI CYNL 110358Z AUTO 31006KT 1 3/4SM VV012 M13/M16 A2999 RMK AO1 SLP211
SPECI CYNL 110355Z AUTO ///// 2 1/2SM VV013 M13/M16 A2999 RMK AO1 SLP211
SPECI CYNL 110350Z AUTO ///// 3SM VV014 M13/M16 A2998 RMK AO1 SLP210
SPECI CYNL 110344Z AUTO ///// 4SM VV015 M13/M16 A2998 RMK AO1 SLP209
SPECI CYNL 110341Z AUTO ///// 4SM VV011 M13/M16 A2998 RMK AO1 SLP209
SPECI CYNL 110340Z AUTO ///// 2 1/2SM VV010 M13/M16 A2998 RMK AO1 SLP209
SPECI CYNL 110336Z AUTO ///// 2 1/2SM VV009 M13/M16 A2998 RMK AO1 SLP208
SPECI CYNL 110335Z AUTO ///// 3SM VV009 M13/M16 A2998 RMK AO1 SLP208
SPECI CYNL 110334Z AUTO ///// 4SM FEW007 SCT015 OVC022 M13/M16 A2998 RMK AO1 SLP208
METAR CYNL 110300Z AUTO ///// 7SM FEW010 SCT015 BKN018 M12/M15 A2997 RMK AO1 SLP205
SPECI CYNL 110248Z AUTO 30007KT 6SM FEW011 SCT015 BKN022 M12/M15 A2997 RMK AO1 SLP205
SPECI CYNL 110238Z AUTO ///// 3SM FEW012 SCT019 OVC049 M12/M15 A2997 RMK AO1 SLP205
SPECI CYNL 110236Z AUTO ///// 2 1/2SM FEW012 OVC049 M12/M15 A2997 RMK AO1 SLP204
SPECI CYNL 110218Z AUTO ///// 5SM FEW012 SCT016 OVC049 M12/M15 A2996 RMK AO1 SLP202
METAR CYNL 110200Z AUTO ///// 4SM FEW005 BKN016 OVC050 M12/M15 A2996 RMK AO1 SLP200
SPECI CYNL 110146Z AUTO ///// 4SM FEW005 BKN015 BKN020 M12/M15 A2996 RMK AO1 SLP201
SPECI CYNL 110145Z AUTO ///// 4SM FEW005 BKN014 BKN020 M12/M15 A2996 RMK AO1 SLP201
SPECI CYNL 110141Z AUTO ///// 5SM FEW004 SCT014 BKN019 M12/M15 A2996 RMK AO1 SLP200
SPECI CYNL 110126Z AUTO ///// 4SM SCT014 OVC019 M12/M15 A2995 RMK AO1 SLP199
SPECI CYNL 110107Z AUTO ///// 4SM VV014 M12/M15 A2995 RMK AO1 SLP197
SPECI CYNL 110103Z AUTO ///// 4SM FEW009 SCT012 BKN017 M12/M15 A2994 RMK AO1 SLP197
SPECI CYNL 110101Z AUTO ///// 5SM SCT011 BKN017 OVC032 M12/M15 A2995 RMK AO1 SLP197
METAR CYNL 110100Z AUTO ///// 5SM SCT010 BKN014 BKN017 M12/M15 A2995 RMK AO1 SLP197
SPECI CYNL 110058Z AUTO ///// 5SM SCT010 BKN014 OVC017 M12/M15 A2995 RMK AO1 SLP197
SPECI CYNL 110054Z AUTO ///// 3SM VV015 M12/M15 A2995 RMK AO1 SLP197
SPECI CYNL 110052Z AUTO ///// 2SM VV013 M12/M15 A2994 RMK AO1 SLP197
SPECI CYNL 110051Z AUTO ///// 1 3/4SM VV012 M12/M15 A2994 RMK AO1 SLP197
SPECI CYNL 110049Z AUTO ///// 1SM VV010 M12/M14 A2994 RMK AO1 SLP196
SPECI CYNL 110046Z AUTO 30009KT 3/4SM VV010 M12/M14 A2994 RMK AO1 SLP196
SPECI CYNL 110040Z AUTO 30006KT 1 1/4SM VV013 M12/M14 A2994 RMK AO1 SLP196
SPECI CYNL 110037Z AUTO 29008KT 1 1/2SM VV013 M12/M14 A2994 RMK AO1 SLP196
SPECI CYNL 110016Z AUTO ///// 1 1/4SM FEW003 SCT006 BKN012 M12/M14 A2994 RMK AO1 SLP195
SPECI CYNL 110012Z AUTO ///// 1 1/4SM FEW003 SCT012 OVC015 M12/M15 A2994 RMK AO1 SLP195
SPECI CYNL 110007Z AUTO ///// 1 3/4SM FEW003 OVC015 M12/M15 A2994 RMK AO1 SLP194
SPECI CYNL 110004Z AUTO 29008KT 1 1/2SM VV016 M12/M14 A2994 RMK AO1 SLP194
SPECI CYNL 110002Z AUTO 29007KT 1 1/4SM VV015 M12/M14 A2994 RMK AO1 SLP194
SPECI CYNL 110001Z AUTO 29007KT 1 1/2SM VV015 M12/M14 A2994 RMK AO1 SLP194
METAR CYNL 110000Z AUTO 29006KT 1 1/2SM VV014 M12/M14 A2994 RMK AO1 SLP194
SPECI CYNL 102357Z AUTO ///// 1SM FEW003 SCT012 OVC015 M12/M14 A2994 RMK AO1 SLP194
SPECI CYNL 102354Z AUTO ///// 1 1/4SM FEW003 OVC014 M12/M14 A2993 RMK AO1 SLP194
SPECI CYNL 102348Z AUTO ///// 1 1/4SM VV014 M12/M14 A2993 RMK AO1 SLP193
SPECI CYNL 102347Z AUTO ///// 1 3/4SM VV015 M12/M14 A2993 RMK AO1 SLP193
SPECI CYNL 102346Z AUTO ///// 2SM VV015 M12/M14 A2993 RMK AO1 SLP193
SPECI CYNL 102336Z AUTO ///// 3SM VV015 M12/M14 A2993 RMK AO1 SLP191
SPECI CYNL 102333Z AUTO ///// 2 1/2SM VV015 M12/M14 A2993 RMK AO1 SLP191
SPECI CYNL 102330Z AUTO ///// 3SM VV015 M12/M14 A2993 RMK AO1 SLP191
SPECI CYNL 102329Z AUTO ///// 3SM VV014 M12/M14 A2993 RMK AO1 SLP191
SPECI CYNL 102325Z AUTO 28008KT 2SM VV014 M11/M14 A2993 RMK AO1 SLP191
SPECI CYNL 102323Z AUTO ///// 2 1/2SM VV016 M11/M14 A2993 RMK AO1 SLP191
SPECI CYNL 102321Z AUTO ///// 5SM VV018 M11/M14 A2993 RMK AO1 SLP190
SPECI CYNL 102320Z AUTO ///// 7SM FEW006 BKN014 BKN019 M11/M14 A2992 RMK AO1 SLP190
SPECI CYNL 102314Z AUTO ///// 3SM FEW007 OVC015 M11/M14 A2992 RMK AO1 SLP189
SPECI CYNL 102313Z AUTO ///// 4SM FEW007 OVC014 M11/M14 A2992 RMK AO1 SLP189
SPECI CYNL 102310Z AUTO ///// 3SM VV015 M11/M14 A2992 RMK AO1 SLP188
SPECI CYNL 102308Z AUTO ///// 3SM VV014 M11/M14 A2992 RMK AO1 SLP188
SPECI CYNL 102305Z AUTO 29009G15KT 2SM VV013 M11/M13 A2992 RMK AO1 SLP187
METAR CYNL 102300Z AUTO 29008G15KT 1 3/4SM VV014 M11/M13 A2992 RMK AO1 SLP186
SPECI CYNL 102259Z AUTO ///// 1 3/4SM VV014 M11/M13 A2992 RMK AO1 SLP186
SPECI CYNL 102257Z AUTO 29010G15KT 2SM VV014 M11/M13 A2992 RMK AO1 SLP187
SPECI CYNL 102252Z AUTO 29008KT 2 1/2SM VV015 M11/M13 A2991 RMK AO1 SLP186
SPECI CYNL 102245Z AUTO 29008KT 3SM VV016 M11/M13 A2991 RMK AO1 SLP186
SPECI CYNL 102243Z AUTO 30008KT 2 1/2SM VV016 M11/M13 A2991 RMK AO1 SLP185
SPECI CYNL 102242Z AUTO 30008KT 3SM VV016 M11/M13 A2991 RMK AO1 SLP185
SPECI CYNL 102241Z AUTO 29007KT 2 1/2SM VV016 M11/M13 A2991 RMK AO1 SLP185
SPECI CYNL 102240Z AUTO 29007KT 3SM VV016 M11/M13 A2991 RMK AO1 SLP185
SPECI CYNL 102237Z AUTO 29008KT 2 1/2SM VV015 M10/M13 A2991 RMK AO1 SLP185
SPECI CYNL 102235Z AUTO 29009KT 3SM VV015 M10/M13 A2991 RMK AO1 SLP184
SPECI CYNL 102234Z AUTO 29008KT 2 1/2SM VV015 M10/M13 A2991 RMK AO1 SLP184
SPECI CYNL 102232Z AUTO 29009KT 1 3/4SM VV015 M10/M13 A2991 RMK AO1 SLP184
SPECI CYNL 102230Z AUTO 28007KT 2SM VV016 M10/M13 A2991 RMK AO1 SLP184
SPECI CYNL 102229Z AUTO 28005KT 1 3/4SM VV016 M10/M13 A2991 RMK AO1 SLP184
SPECI CYNL 102225Z AUTO 30005KT 2 1/2SM VV019 M10/M13 A2991 RMK AO1 SLP183
SPECI CYNL 102215Z AUTO 29004KT 3SM VV018 M10/M13 A2991 RMK AO1 SLP183
SPECI CYNL 102211Z AUTO 28004KT 2SM VV017 M10/M13 A2991 RMK AO1 SLP183
SPECI CYNL 102206Z AUTO 29005KT 1 3/4SM VV016 M10/M13 A2991 RMK AO1 SLP183
METAR CYNL 102200Z AUTO 29005KT 2 1/2SM VV018 M10/M13 A2991 RMK AO1 SLP183
SPECI CYNL 102158Z AUTO 28004KT 2 1/2SM VV019 M10/M13 A2991 RMK AO1 SLP183
SPECI CYNL 102142Z AUTO 28004KT 3SM VV018 M10/M13 A2990 RMK AO1 SLP181
SPECI CYNL 102140Z AUTO 29006KT 2 1/2SM VV019 M10/M13 A2990 RMK AO1 SLP181
SPECI CYNL 102129Z AUTO 28005KT 3SM FEW012 BKN024 OVC034 M10/M13 A2990 RMK AO1 SLP181
METAR CYNL 102100Z AUTO 30004KT 9SM OVC033 M10/M13 A2990 RMK AO1 SLP182
SPECI CYNL 102003Z AUTO 29008KT 9SM FEW013 SCT027 OVC032 M11/M14 A2990 RMK AO1 SLP180
METAR CYNL 102000Z AUTO 29007KT 9SM FEW013 BKN026 OVC032 M11/M14 A2990 RMK AO1 SLP180
METAR CYNL 101900Z AUTO 29008KT 8SM OVC026 M11/M14 A2989 RMK AO1 SLP179
SPECI CYNL 101809Z AUTO 30008KT 4SM VV029 M11/M14 A2990 RMK AO1 SLP181
SPECI CYNL 101804Z AUTO 30008KT 7SM SCT028 OVC041 M11/M14 A2990 RMK AO1 SLP180
METAR CYNL 101800Z AUTO 31007KT 5SM VV028 M11/M14 A2990 RMK AO1 SLP180
SPECI CYNL 101759Z AUTO 31008KT 5SM VV029 M11/M14 A2990 RMK AO1 SLP180
SPECI CYNL 101735Z AUTO 30009KT 8SM VV031 M11/M14 A2989 RMK AO1 SLP179
SPECI CYNL 101732Z AUTO 31007KT 9SM VV026 M11/M14 A2989 RMK AO1 SLP180
METAR CYNL 101700Z AUTO ///// 4SM VV016 M11/M14 A2988 RMK AO1 SLP176
SPECI CYNL 101649Z AUTO 29009KT 3SM FEW010 BKN013 BKN017 M11/M14 A2988 RMK AO1 SLP175
SPECI CYNL 101639Z AUTO ///// 3SM VV015 M11/M14 A2988 RMK AO1 SLP174
SPECI CYNL 101635Z AUTO ///// 3SM VV012 M11/M14 A2988 RMK AO1 SLP174
SPECI CYNL 101631Z AUTO 29010KT 2 1/2SM VV012 M11/M14 A2988 RMK AO1 SLP173
SPECI CYNL 101630Z AUTO 29009KT 3SM VV012 M11/M14 A2988 RMK AO1 SLP173
SPECI CYNL 101629Z AUTO 29007KT 2 1/2SM VV012 M11/M14 A2988 RMK AO1 SLP173
SPECI CYNL 101626Z AUTO 29008KT 3SM VV014 M11/M14 A2988 RMK AO1 SLP173
SPECI CYNL 101624Z AUTO 29007KT 2 1/2SM VV014 M11/M14 A2988 RMK AO1 SLP173
SPECI CYNL 101621Z AUTO 30007KT 4SM VV014 M11/M14 A2988 RMK AO1 SLP173
SPECI CYNL 101614Z AUTO 30007KT 4SM FEW010 SCT017 BKN023 M11/M14 A2987 RMK AO1 SLP173
SPECI CYNL 101613Z AUTO 30007KT 5SM FEW010 SCT022 BKN029 M11/M14 A2987 RMK AO1 SLP173
SPECI CYNL 101601Z AUTO 29010KT 7SM SCT009 OVC041 M11/M14 A2987 RMK AO1 SLP172
METAR CYNL 101600Z AUTO 29008KT 7SM SCT009 BKN021 OVC041 M11/M14 A2987 RMK AO1 SLP172
SPECI CYNL 101542Z AUTO 29006KT 9SM BKN009 OVC044 M12/M14 A2987 RMK AO1 SLP173
SPECI CYNL 101537Z AUTO 29007KT 9SM FEW009 SCT012 BKN044 M12/M14 A2987 RMK AO1 SLP173
SPECI CYNL 101521Z AUTO 28006KT 9SM SCT010 BKN033 BKN044 M12/M14 A2988 RMK AO1 SLP174
SPECI CYNL 101520Z AUTO 28006KT 9SM SCT011 BKN025 BKN044 M12/M14 A2988 RMK AO1 SLP174
SPECI CYNL 101514Z AUTO 28004KT 9SM FEW007 SCT026 BKN034 M12/M14 A2987 RMK AO1 SLP173
SPECI CYNL 101512Z AUTO 29006KT 9SM SCT025 BKN045 M12/M14 A2987 RMK AO1 SLP172
SPECI CYNL 101504Z AUTO 28006KT 9SM VV029 M12/M14 A2987 RMK AO1 SLP171
METAR CYNL 101500Z AUTO 28004KT 7SM VV038 M12/M14 A2987 RMK AO1 SLP171
SPECI CYNL 101428Z AUTO 27003KT 5SM VV030 M12/M14 A2986 RMK AO1 SLP170
SPECI CYNL 101425Z AUTO 27003KT 3SM VV025 M12/M14 A2986 RMK AO1 SLP170
SPECI CYNL 101424Z AUTO 27004KT 2 1/2SM VV023 M12/M14 A2986 RMK AO1 SLP170
SPECI CYNL 101422Z AUTO 27004KT 3SM VV023 M12/M14 A2986 RMK AO1 SLP170
SPECI CYNL 101409Z AUTO 26002KT 2SM VV015 M12/M14 A2986 RMK AO1 SLP169
SPECI CYNL 101407Z AUTO 27003KT 1 3/4SM VV015 M12/M14 A2986 RMK AO1 SLP169
SPECI CYNL 101406Z AUTO 27003KT 2SM VV015 M12/M14 A2986 RMK AO1 SLP169
SPECI CYNL 101402Z AUTO 27003KT 1 3/4SM VV019 M12/M14 A2986 RMK AO1 SLP169
SPECI CYNL 101401Z AUTO 27004KT 2SM VV020 M12/M14 A2986 RMK AO1 SLP169
METAR CYNL 101400Z AUTO 27004KT 2 1/2SM FEW019 OVC026 M12/M14 A2986 RMK AO1 SLP169
SPECI CYNL 101341Z AUTO 27003KT 8SM FEW016 OVC025 M12/M14 A2986 RMK AO1 SLP169
SPECI CYNL 101335Z AUTO 26003KT 3SM VV024 M12/M14 A2986 RMK AO1 SLP169
SPECI CYNL 101333Z AUTO 26003KT 2 1/2SM VV024 M12/M14 A2986 RMK AO1 SLP169
SPECI CYNL 101330Z AUTO 26002KT 4SM VV021 M12/M14 A2986 RMK AO1 SLP169
SPECI CYNL 101325Z AUTO 26002KT 2SM VV016 M12/M14 A2986 RMK AO1 SLP169
SPECI CYNL 101322Z AUTO 26003KT 1 1/2SM VV017 M12/M14 A2986 RMK AO1 SLP169
SPECI CYNL 101321Z AUTO 26003KT 2SM VV019 M12/M14 A2986 RMK AO1 SLP169
SPECI CYNL 101318Z AUTO 26002KT 5SM VV024 M12/M14 A2986 RMK AO1 SLP169
METAR CYNL 101300Z AUTO 26003KT 9SM OVC026 M12/M15 A2986 RMK AO1 SLP169
SPECI CYNL 101236Z AUTO 25003KT 9SM VV025 M12/M15 A2986 RMK AO1 SLP168
SPECI CYNL 101224Z AUTO 26003KT 5SM VV023 M13/M15 A2986 RMK AO1 SLP168
SPECI CYNL 101220Z AUTO 26003KT 6SM VV028 M13/M15 A2986 RMK AO1 SLP169
METAR CYNL 101200Z AUTO 24004KT 9SM OVC036 M13/M15 A2987 RMK AO1 SLP170
SPECI CYNL 101115Z AUTO 22003KT 9SM SCT018 OVC041 M13/M16 A2987 RMK AO1 SLP171
METAR CYNL 101100Z AUTO 22003KT 4SM VV021 M13/M16 A2986 RMK AO1 SLP171
SPECI CYNL 101059Z AUTO 21003KT 3SM VV021 M13/M16 A2986 RMK AO1 SLP171
SPECI CYNL 101050Z AUTO 21002KT 2 1/2SM VV021 M13/M16 A2986 RMK AO1 SLP171
SPECI CYNL 101049Z AUTO 21002KT 3SM VV021 M13/M16 A2986 RMK AO1 SLP171
SPECI CYNL 101048Z AUTO 21003KT 2 1/2SM VV021 M13/M16 A2986 RMK AO1 SLP171
SPECI CYNL 101042Z AUTO 22003KT 3SM VV020 M13/M16 A2986 RMK AO1 SLP171
SPECI CYNL 101031Z AUTO 21003KT 2 1/2SM VV020 M13/M16 A2986 RMK AO1 SLP170
SPECI CYNL 101028Z AUTO 22004KT 3SM VV021 M13/M16 A2986 RMK AO1 SLP171
SPECI CYNL 101023Z AUTO 21003KT 2 1/2SM VV019 M13/M16 A2986 RMK AO1 SLP171
METAR CYNL 101000Z AUTO 19003KT 4SM VV023 M13/M16 A2986 RMK AO1 SLP170
SPECI CYNL 100954Z AUTO 20003KT 6SM VV024 M13/M16 A2986 RMK AO1 SLP170
SPECI CYNL 100949Z AUTO 20003KT 3SM VV025 M13/M16 A2986 RMK AO1 SLP169
SPECI CYNL 100948Z AUTO 19003KT 3SM VV024 M13/M16 A2986 RMK AO1 SLP169
SPECI CYNL 100944Z AUTO 20003KT 2SM VV019 M13/M16 A2986 RMK AO1 SLP169
SPECI CYNL 100941Z AUTO 20003KT 1 3/4SM VV019 M13/M16 A2986 RMK AO1 SLP169
SPECI CYNL 100940Z AUTO 20004KT 2 1/2SM VV019 M13/M16 A2986 RMK AO1 SLP169
METAR CYNL 100900Z AUTO 21004KT 3SM FEW003 OVC018 M14/M16 A2986 RMK AO1 SLP171
SPECI CYNL 100859Z AUTO 20004KT 3SM FEW003 OVC018 M14/M16 A2986 RMK AO1 SLP170
SPECI CYNL 100856Z AUTO 20004KT 2 1/2SM FEW003 OVC018 M14/M16 A2986 RMK AO1 SLP170
SPECI CYNL 100855Z AUTO 20005KT 3SM FEW003 OVC018 M14/M16 A2986 RMK AO1 SLP170
SPECI CYNL 100852Z AUTO 20004KT 2 1/2SM FEW003 OVC017 M14/M16 A2986 RMK AO1 SLP170
SPECI CYNL 100845Z AUTO 20005KT 3SM FEW003 BKN016 OVC019 M14/M16 A2986 RMK AO1 SLP170
SPECI CYNL 100837Z AUTO 19005KT 2 1/2SM FEW003 OVC015 M14/M16 A2986 RMK AO1 SLP169
SPECI CYNL 100834Z AUTO 18005KT 3SM FEW003 OVC015 M14/M16 A2986 RMK AO1 SLP169
METAR CYNL 100800Z AUTO 19005KT 9SM OVC013 M13/M16 A2986 RMK AO1 SLP171
METAR CYNL 100700Z AUTO 17004KT 9SM OVC014 M13/M16 A2986 RMK AO1 SLP171
SPECI CYNL 100613Z AUTO 16006KT 9SM OVC014 M13/M16 A2986 RMK AO1 SLP171
METAR CYNL 100600Z AUTO 17005KT 9SM OVC015 M13/M16 A2986 RMK AO1 SLP171
METAR CYNL 100500Z AUTO 18005KT 9SM FEW012 OVC015 M13/M16 A2987 RMK AO1 SLP174
SPECI CYNL 100446Z AUTO 17005KT 9SM SCT012 OVC015 M13/M16 A2986 RMK AO1 SLP174
METAR CYNL 100400Z AUTO 19005KT 9SM OVC012 M13/M16 A2986 RMK AO1 SLP175
METAR CYNL 100300Z AUTO 18006KT 9SM OVC012 M13/M16 A2987 RMK AO1 SLP178
SPECI CYNL 100219Z AUTO 18004KT 9SM BKN013 M14/M16 A2987 RMK AO1 SLP181
METAR CYNL 100200Z AUTO ///// 9SM FEW013 M13/M16 A2987 RMK AO1 SLP180
SPECI CYNL 100151Z AUTO 18006KT 9SM FEW007 SCT013 M13/M16 A2987 RMK AO1 SLP182
SPECI CYNL 100134Z AUTO ///// 9SM FEW007 BKN014 M13/M16 A2987 RMK AO1 SLP181
SPECI CYNL 100118Z AUTO ///// 9SM BKN014 OVC023 M12/M15 A2987 RMK AO1 SLP181
SPECI CYNL 100114Z AUTO ///// 9SM BKN015 OVC023 M12/M15 A2987 RMK AO1 SLP181
METAR CYNL 100100Z AUTO ///// 9SM OVC014 M12/M15 A2987 RMK AO1 SLP181
METAR CYNL 100000Z AUTO ///// 9SM OVC013 M12/M15 A2988 RMK AO1 SLP185
METAR CYNL 092300Z AUTO ///// 9SM OVC014 M13/M16 A2989 RMK AO1 SLP190
SPECI CYNL 092228Z AUTO ///// 9SM OVC014 M13/M16 A2990 RMK AO1 SLP197
METAR CYNL 092200Z AUTO ///// 9SM BKN016 M13/M16 A2991 RMK AO1 SLP200
SPECI CYNL 092148Z AUTO ///// 9SM BKN016 M13/M16 A2992 RMK AO1 PRESFR SLP202
SPECI CYNL 092141Z AUTO ///// 9SM SCT016 M13/M16 A2992 RMK AO1 PRESFR SLP203
SPECI CYNL 092140Z AUTO ///// 9SM BKN016 M13/M16 A2992 RMK AO1 PRESFR SLP203
METAR CYNL 092100Z AUTO ///// 9SM FEW007 M13/M16 A2993 RMK AO1 PRESFR SLP207
SPECI CYNL 092016Z AUTO ///// 9SM FEW007 M12/M16 A2994 RMK AO1 PRESFR SLP210
METAR CYNL 092000Z AUTO 18009KT 9SM CLR M12/M16 A2995 RMK AO1 PRESFR SLP212
METAR CYNL 091900Z AUTO ///// 9SM CLR M14/M17 A2997 RMK AO1 PRESFR SLP222
METAR CYNL 091800Z AUTO ///// 9SM CLR M14/M17 A3001 RMK AO1 PRESFR SLP234
METAR CYNL 091700Z AUTO 17009KT 9SM CLR M15/M18 A3004 RMK AO1 PRESFR SLP245
METAR CYNL 091600Z AUTO 17008KT 9SM CLR M17/M20 A3006 RMK AO1 PRESFR SLP256
METAR CYNL 091500Z AUTO 17006KT 9SM CLR M18/M21 A3010 RMK AO1 PRESFR SLP266
METAR CYNL 091400Z AUTO 17004KT 9SM CLR M19/M22 A3014 RMK AO1 PRESFR SLP277
METAR CYNL 091300Z AUTO 18005KT 9SM CLR M20/M23 A3019 RMK AO1 PRESFR SLP294
METAR CYNL 091200Z AUTO 19003KT 9SM CLR M21/M24 A3023 RMK AO1 PRESFR SLP309
METAR CYNL 091100Z AUTO 19004KT 9SM CLR M23/M26 A3027 RMK AO1 PRESFR SLP326
METAR CYNL 091000Z AUTO 20003KT 9SM CLR M24/M27 A3030 RMK AO1 PRESFR SLP336
METAR CYNL 090900Z AUTO 22004KT 9SM CLR M22/M26 A3033 RMK AO1 PRESFR SLP345
METAR CYNL 090800Z AUTO 23004KT 9SM CLR M22/M26 A3036 RMK AO1 SLP353
METAR CYNL 090700Z AUTO 23004KT 9SM CLR M22/M25 A3038 RMK AO1 SLP360
METAR CYNL 090600Z AUTO 22003KT 9SM CLR M22/M25 A3040 RMK AO1 SLP366
METAR CYNL 090500Z AUTO 21003KT 9SM CLR M21/M25 A3041 RMK AO1 SLP373
METAR CYNL 090400Z AUTO 21003KT 9SM CLR M19/M22 A3043 RMK AO1 SLP376
SPECI CYNL 090301Z AUTO 19002KT 9SM FEW009 SCT021 M15/M18 A3044 RMK AO1 SLP384
METAR CYNL 090300Z AUTO 19002KT 9SM FEW009 BKN021 M15/M18 A3044 RMK AO1 SLP384
SPECI CYNL 090245Z AUTO 18003KT 9SM SCT009 BKN022 M15/M17 A3044 RMK AO1 SLP392
METAR CYNL 090200Z AUTO 00000KT 9SM OVC009 M14/M16 A3046 RMK AO1 SLP393
METAR CYNL 090100Z AUTO 26002KT 9SM OVC008 M14/M16 A3047 RMK AO1 SLP398
METAR CYNL 090000Z AUTO 22002KT 9SM OVC009 M14/M16 A3047 RMK AO1 SLP399
SPECI CYNL 082357Z AUTO 24003KT 9SM OVC009 M14/M16 A3047 RMK AO1 SLP397
SPECI CYNL 082338Z AUTO 00000KT 9SM OVC010 M14/M16 A3047 RMK AO1 SLP397
SPECI CYNL 082303Z AUTO 23003KT 9SM OVC009 M13/M16 A3048 RMK AO1 SLP399
METAR CYNL 082300Z AUTO 24002KT 9SM OVC010 M13/M16 A3048 RMK AO1 SLP400
METAR CYNL 082200Z AUTO 28006KT 9SM OVC010 M13/M16 A3048 RMK AO1 SLP400
METAR CYNL 082100Z AUTO 28005KT 9SM OVC011 M13/M15 A3047 RMK AO1 SLP397
SPECI CYNL 082013Z AUTO 30002KT 9SM OVC010 M13/M16 A3047 RMK AO1 SLP395
METAR CYNL 082000Z AUTO 29004KT 9SM OVC009 M13/M16 A3048 RMK AO1 SLP396
METAR CYNL 081900Z AUTO 26004KT 9SM OVC008 M14/M16 A3048 RMK AO1 SLP397
METAR CYNL 081800Z AUTO 29003KT 9SM OVC008 M14/M17 A3048 RMK AO1 SLP393
METAR CYNL 081700Z AUTO 00000KT 9SM BKN009 OVC011 M16/M19 A3047 RMK AO1 SLP392
SPECI CYNL 081658Z AUTO 00000KT 9SM BKN009 OVC011 M16/M19 A3047 RMK AO1 SLP391
METAR CYNL 081600Z AUTO 00000KT 9SM BKN014 M22/M25 A3046 RMK AO1 SLP395
SPECI CYNL 081556Z AUTO 00000KT 9SM BKN014 M22/M26 A3046 RMK AO1 SLP393
SPECI CYNL 081540Z AUTO 28003KT 9SM BKN015 M24/M27 A3046 RMK AO1 SLP394
SPECI CYNL 081532Z AUTO 27003KT 9SM SCT015 M24/M27 A3045 RMK AO1 SLP393
SPECI CYNL 081505Z AUTO 28003KT 9SM BKN018 M26/M30 A3045 RMK AO1 SLP396
METAR CYNL 081500Z AUTO 29003KT 9SM SCT018 M27/M31 A3045 RMK AO1 SLP396
METAR CYNL 081400Z AUTO 00000KT 9SM CLR M27/M31 A3043 RMK AO1 SLP390
METAR CYNL 081300Z AUTO 33003KT 9SM CLR M26/M29 A3042 RMK AO1 SLP385
METAR CYNL 081200Z AUTO 32004KT 9SM CLR M25/M28 A3041 RMK AO1 SLP379
METAR CYNL 081100Z AUTO 00000KT 9SM CLR M26/M30 A3039 RMK AO1 SLP373
METAR CYNL 081000Z AUTO 31003KT 9SM CLR M26/M29 A3038 RMK AO1 SLP365
METAR CYNL 080900Z AUTO 00000KT 9SM CLR M24/M27 A3037 RMK AO1 SLP356
METAR CYNL 080800Z AUTO 34002KT 9SM CLR M23/M26 A3036 RMK AO1 SLP351
METAR CYNL 080700Z AUTO 34003KT 9SM CLR M21/M24 A3034 RMK AO1 SLP343
METAR CYNL 080600Z AUTO 33004KT 9SM CLR M19/M22 A3033 RMK AO1 SLP338
METAR CYNL 080500Z AUTO 33005KT 9SM CLR M18/M21 A3033 RMK AO1 SLP336
METAR CYNL 080400Z AUTO 32005KT 9SM CLR M17/M20 A3031 RMK AO1 SLP330
SPECI CYNL 080325Z AUTO 31006KT 9SM FEW005 SCT008 M16/M19 A3031 RMK AO1 SLP329
SPECI CYNL 080324Z AUTO 31006KT 9SM FEW005 SCT008 BKN012 M16/M19 A3031 RMK AO1 SLP329
SPECI CYNL 080309Z AUTO 31006KT 3SM VV009 M16/M19 A3031 RMK AO1 SLP330
SPECI CYNL 080305Z AUTO 31006KT 2SM FEW005 BKN009 BKN011 M17/M19 A3031 RMK AO1 SLP330
SPECI CYNL 080302Z AUTO 32005KT 1 3/4SM FEW005 BKN009 BKN014 M17/M19 A3031 RMK AO1 SLP330
SPECI CYNL 080301Z AUTO 32004KT 2 1/2SM FEW005 BKN009 BKN014 M17/M19 A3031 RMK AO1 SLP331
METAR CYNL 080300Z AUTO 32004KT 3SM FEW005 BKN009 BKN014 M17/M20 A3031 RMK AO1 SLP331
SPECI CYNL 080258Z AUTO 32005KT 3SM FEW005 BKN009 M17/M20 A3031 RMK AO1 SLP334
SPECI CYNL 080246Z AUTO 32005KT 9SM FEW004 BKN013 M18/M21 A3031 RMK AO1 SLP335
SPECI CYNL 080217Z AUTO 31005KT 9SM FEW004 M17/M20 A3030 RMK AO1 SLP333
METAR CYNL 080200Z AUTO 30006KT 9SM CLR M17/M20 A3030 RMK AO1 SLP333
METAR CYNL 080100Z AUTO 30005KT 9SM FEW004 SCT007 M17/M19 A3030 RMK AO1 SLP330
SPECI CYNL 080053Z AUTO 30005KT 7SM SCT004 M17/M19 A3030 RMK AO1 SLP329
SPECI CYNL 080045Z AUTO 30005KT 9SM VV005 M17/M19 A3030 RMK AO1 SLP328
SPECI CYNL 080043Z AUTO 30005KT 9SM VV004 M17/M19 A3030 RMK AO1 SLP328
SPECI CYNL 080031Z AUTO 30005KT 9SM SCT005 M17/M19 A3030 RMK AO1 SLP328
SPECI CYNL 080024Z AUTO 29005KT 9SM SCT004 BKN006 M16/M19 A3030 RMK AO1 SLP328
SPECI CYNL 080020Z AUTO 30005KT 9SM VV004 M16/M19 A3030 RMK AO1 SLP327
METAR CYNL 080000Z AUTO 30005KT 9SM VV006 M16/M18 A3030 RMK AO1 SLP327
SPECI CYNL 072356Z AUTO 30004KT 9SM VV006 M16/M18 A3030 RMK AO1 SLP325
SPECI CYNL 072329Z AUTO 29003KT 9SM FEW004 SCT006 M14/M17 A3030 RMK AO1 SLP323
SPECI CYNL 072320Z AUTO 29002KT 9SM SCT004 BKN006 BKN008 M14/M17 A3030 RMK AO1 SLP323
SPECI CYNL 072318Z AUTO 29002KT 9SM VV004 M14/M16 A3030 RMK AO1 SLP322
METAR CYNL 072300Z AUTO 29003KT 7SM VV007 M13/M16 A3029 RMK AO1 SLP321
SPECI CYNL 072235Z AUTO 30003KT 9SM VV005 M13/M15 A3029 RMK AO1 SLP319
SPECI CYNL 072208Z AUTO 31005KT 9SM SCT007 M12/M15 A3029 RMK AO1 SLP317
SPECI CYNL 072205Z AUTO 30004KT 9SM SCT007 BKN013 M12/M14 A3028 RMK AO1 SLP316
METAR CYNL 072200Z AUTO 30005KT 9SM VV006 M12/M14 A3028 RMK AO1 SLP316
SPECI CYNL 072144Z AUTO 30006KT 9SM VV009 M12/M14 A3028 RMK AO1 SLP315
SPECI CYNL 072137Z AUTO 30005KT 9SM FEW006 SCT008 BKN013 M12/M14 A3028 RMK AO1 SLP315
SPECI CYNL 072136Z AUTO 30004KT 9SM VV010 M12/M14 A3028 RMK AO1 SLP315
SPECI CYNL 072132Z AUTO 30005KT 9SM VV009 M12/M14 A3028 RMK AO1 SLP315
SPECI CYNL 072126Z AUTO 31005KT 9SM FEW006 SCT008 BKN013 M12/M14 A3028 RMK AO1 SLP315
SPECI CYNL 072124Z AUTO 31005KT 9SM VV008 M12/M14 A3028 RMK AO1 SLP315
METAR CYNL 072100Z AUTO 31004KT 9SM SCT008 OVC013 M11/M14 A3028 RMK AO1 SLP313
SPECI CYNL 072049Z AUTO 30007KT 9SM SCT008 BKN012 M11/M14 A3028 RMK AO1 SLP313
SPECI CYNL 072047Z AUTO 31007KT 9SM VV010 M11/M14 A3028 RMK AO1 SLP313
SPECI CYNL 072045Z AUTO 32006KT 9SM VV008 M11/M14 A3028 RMK AO1 SLP313
SPECI CYNL 072038Z AUTO 31007KT 9SM FEW007 SCT009 BKN012 M11/M14 A3028 RMK AO1 SLP313
SPECI CYNL 072037Z AUTO 31006KT 9SM VV010 M11/M14 A3028 RMK AO1 SLP313
SPECI CYNL 072032Z AUTO 30005KT 9SM VV007 M11/M14 A3028 RMK AO1 SLP314
SPECI CYNL 072027Z AUTO 31004KT 9SM FEW006 M11/M14 A3028 RMK AO1 SLP314
METAR CYNL 072000Z AUTO 30004KT 9SM CLR M11/M14 A3028 RMK AO1 SLP312
SPECI CYNL 071903Z AUTO 30005KT 9SM FEW007 SCT068 M12/M14 A3027 RMK AO1 SLP313
METAR CYNL 071900Z AUTO 29006KT 9SM SCT068 M12/M14 A3027 RMK AO1 SLP313
METAR CYNL 071800Z AUTO 31004KT 9SM SCT066 M12/M15 A3027 RMK AO1 SLP313
METAR CYNL 071700Z AUTO 32005KT 9SM FEW005 SCT064 M13/M15 A3027 RMK AO1 SLP314
SPECI CYNL 071637Z AUTO 33005KT 5SM FEW005 M14/M16 A3027 RMK AO1 SLP315
METAR CYNL 071600Z AUTO 33005KT 9SM CLR M14/M17 A3027 RMK AO1 SLP315
METAR CYNL 071500Z AUTO 30006KT 9SM FEW058 M17/M20 A3027 RMK AO1 SLP317
METAR CYNL 071400Z AUTO 30005KT 9SM CLR M17/M19 A3026 RMK AO1 SLP314
METAR CYNL 071300Z AUTO 30005KT 9SM CLR M16/M18 A3027 RMK AO1 SLP314
METAR CYNL 071200Z AUTO 32004KT 9SM BKN062 M14/M17 A3027 RMK AO1 SLP313
METAR CYNL 071100Z AUTO 30004KT 9SM OVC066 M14/M17 A3027 RMK AO1 SLP310
METAR CYNL 071000Z AUTO 31004KT 9SM OVC068 M14/M17 A3027 RMK AO1 SLP311
METAR CYNL 070900Z AUTO 32004KT 9SM OVC066 M15/M17 A3028 RMK AO1 SLP313
METAR CYNL 070800Z AUTO 34005KT 9SM BKN068 M15/M18 A3028 RMK AO1 SLP314
METAR CYNL 070700Z AUTO 32004KT 9SM FEW004 SCT068 M15/M17 A3028 RMK AO1 SLP313
SPECI CYNL 070644Z AUTO 32003KT 9SM FEW004 SCT006 M14/M17 A3027 RMK AO1 SLP312
METAR CYNL 070600Z AUTO 30004KT 9SM BKN007 M15/M17 A3027 RMK AO1 SLP313
SPECI CYNL 070539Z AUTO 31003KT 9SM FEW005 BKN007 M16/M18 A3027 RMK AO1 SLP315
SPECI CYNL 070537Z AUTO 31004KT 7SM FEW005 SCT007 BKN010 M16/M18 A3028 RMK AO1 SLP315
SPECI CYNL 070534Z AUTO 31003KT 9SM SCT005 M16/M18 A3027 RMK AO1 SLP315
SPECI CYNL 070531Z AUTO 31004KT 8SM SCT005 BKN010 M16/M18 A3028 RMK AO1 SLP315
SPECI CYNL 070507Z AUTO 30004KT 9SM VV006 M15/M18 A3028 RMK AO1 SLP317
METAR CYNL 070500Z AUTO 30004KT 5SM BKN004 M15/M18 A3028 RMK AO1 SLP316
SPECI CYNL 070449Z AUTO 30004KT 4SM BKN004 M15/M18 A3028 RMK AO1 SLP316
SPECI CYNL 070448Z AUTO 30004KT 4SM FEW003 BKN005 M15/M18 A3028 RMK AO1 SLP316
SPECI CYNL 070446Z AUTO 30005KT 5SM VV004 M15/M18 A3028 RMK AO1 SLP316
SPECI CYNL 070439Z AUTO 29005KT 3SM SCT005 BKN008 M15/M17 A3028 RMK AO1 SLP316
SPECI CYNL 070438Z AUTO 29005KT 4SM SCT005 BKN010 M15/M17 A3028 RMK AO1 SLP316
SPECI CYNL 070431Z AUTO 29005KT 9SM SCT005 BKN054 M15/M17 A3028 RMK AO1 SLP316
SPECI CYNL 070423Z AUTO 30005KT 9SM VV005 M15/M17 A3028 RMK AO1 SLP316
SPECI CYNL 070419Z AUTO 30005KT 9SM FEW005 BKN054 M15/M17 A3028 RMK AO1 SLP316
METAR CYNL 070400Z AUTO 30005KT 9SM BKN054 M14/M16 A3028 RMK AO1 SLP315
SPECI CYNL 070305Z AUTO 30005KT 9SM SCT010 OVC068 M13/M15 A3028 RMK AO1 SLP314
METAR CYNL 070300Z AUTO 30005KT 9SM BKN010 OVC068 M13/M15 A3028 RMK AO1 SLP314
SPECI CYNL 070256Z AUTO 31006KT 9SM BKN010 OVC068 M13/M15 A3028 RMK AO1 SLP315
SPECI CYNL 070254Z AUTO 30005KT 9SM SCT010 OVC068 M13/M15 A3028 RMK AO1 SLP315
SPECI CYNL 070235Z AUTO 31005KT 9SM OVC010 M13/M15 A3028 RMK AO1 SLP315
SPECI CYNL 070229Z AUTO 31005KT 9SM BKN009 OVC012 M13/M15 A3028 RMK AO1 SLP315
SPECI CYNL 070224Z AUTO 31005KT 9SM BKN010 OVC012 M13/M15 A3028 RMK AO1 SLP315
SPECI CYNL 070222Z AUTO 31006KT 9SM FEW004 BKN009 OVC012 M13/M15 A3028 RMK AO1 SLP315
METAR CYNL 070200Z AUTO 31005KT 9SM FEW003 SCT007 BKN011 M13/M15 A3028 RMK AO1 SLP315
SPECI CYNL 070159Z AUTO 31006KT 9SM FEW003 SCT006 BKN011 M13/M15 A3028 RMK AO1 SLP315
SPECI CYNL 070146Z AUTO 31004KT 9SM VV007 M13/M15 A3028 RMK AO1 SLP315
SPECI CYNL 070142Z AUTO 31005KT 9SM FEW007 BKN011 OVC054 M13/M15 A3028 RMK AO1 SLP314
SPECI CYNL 070134Z AUTO 30005KT 9SM BKN011 OVC054 M13/M15 A3028 RMK AO1 SLP314
METAR CYNL 070100Z AUTO 31005KT 9SM OVC052 M12/M14 A3028 RMK AO1 SLP313
METAR CYNL 070000Z AUTO 29007KT 9SM OVC052 M12/M14 A3027 RMK AO1 SLP312
SPECI CYNL 062342Z AUTO 30005KT 9SM FEW009 OVC052 M12/M14 A3028 RMK AO1 SLP312
SPECI CYNL 062323Z AUTO 30006KT 9SM SCT012 OVC052 M12/M14 A3028 RMK AO1 SLP312
SPECI CYNL 062311Z AUTO 31005KT 9SM BKN012 OVC052 M12/M14 A3028 RMK AO1 SLP313
METAR CYNL 062300Z AUTO 30006KT 9SM FEW012 OVC052 M12/M14 A3028 RMK AO1 SLP312
SPECI CYNL 062204Z AUTO 31005KT 9SM FEW006 SCT011 OVC047 M12/M14 A3027 RMK AO1 SLP309
METAR CYNL 062200Z AUTO 31007KT 9SM SCT011 OVC047 M12/M14 A3026 RMK AO1 SLP308
SPECI CYNL 062159Z AUTO 32005KT 9SM SCT011 OVC047 M12/M14 A3026 RMK AO1 SLP308
SPECI CYNL 062155Z AUTO 31006KT 9SM FEW008 BKN011 OVC048 M12/M14 A3026 RMK AO1 SLP308
SPECI CYNL 062146Z AUTO 31005KT 9SM BKN011 OVC049 M12/M14 A3026 RMK AO1 SLP308
SPECI CYNL 062139Z AUTO ///// 9SM SCT011 OVC050 M12/M14 A3026 RMK AO1 SLP308
SPECI CYNL 062135Z AUTO 31006KT 9SM BKN011 OVC050 M12/M14 A3026 RMK AO1 SLP307
METAR CYNL 062100Z AUTO ///// 9SM OVC037 M12/M14 A3026 RMK AO1 SLP305
METAR CYNL 062000Z AUTO 31007KT 9SM SCT011 OVC041 M11/M14 A3025 RMK AO1 SLP304
SPECI CYNL 061912Z AUTO 30007KT 9SM FEW008 OVC039 M12/M14 A3024 RMK AO1 SLP302
METAR CYNL 061900Z AUTO ///// 9SM OVC039 M12/M14 A3024 RMK AO1 SLP302
METAR CYNL 061800Z AUTO ///// 9SM OVC042 M12/M15 A3025 RMK AO1 SLP304
SPECI CYNL 061721Z AUTO ///// 9SM FEW017 SCT026 OVC043 M12/M15 A3024 RMK AO1 SLP303
METAR CYNL 061700Z AUTO 30006KT 9SM FEW011 OVC025 M13/M15 A3024 RMK AO1 SLP303
METAR CYNL 061600Z AUTO 30008KT 9SM OVC021 M13/M16 A3023 RMK AO1 SLP301
SPECI CYNL 061530Z AUTO ///// 9SM FEW003 SCT011 BKN017 M14/M16 A3023 RMK AO1 SLP300
METAR CYNL 061500Z AUTO 32007KT 9SM FEW003 OVC011 M14/M16 A3023 RMK AO1 SLP300
SPECI CYNL 061452Z AUTO 31008KT 9SM SCT003 OVC012 M14/M16 A3023 RMK AO1 SLP299
SPECI CYNL 061450Z AUTO 32007KT 8SM SCT003 BKN008 OVC012 M14/M16 A3023 RMK AO1 SLP299
SPECI CYNL 061437Z AUTO 31007KT 9SM SCT003 BKN013 OVC044 M14/M16 A3022 RMK AO1 SLP297
SPECI CYNL 061428Z AUTO ///// 9SM VV007 M14/M16 A3022 RMK AO1 SLP296
METAR CYNL 061400Z AUTO 31007KT 9SM SCT003 OVC042 M14/M16 A3021 RMK AO1 SLP294
SPECI CYNL 061358Z AUTO 31007KT 9SM SCT003 OVC041 M14/M16 A3021 RMK AO1 SLP293
SPECI CYNL 061357Z AUTO 31007KT 9SM SCT003 BKN009 OVC041 M14/M16 A3021 RMK AO1 SLP293
METAR CYNL 061300Z AUTO ///// 6SM OVC003 M14/M16 A3020 RMK AO1 SLP291
METAR CYNL 061200Z AUTO ///// 5SM BKN003 OVC006 M14/M16 A3020 RMK AO1 SLP288
METAR CYNL 061100Z AUTO ///// 4SM BKN003 OVC007 M13/M16 A3019 RMK AO1 SLP284
SPECI CYNL 061027Z AUTO 30007KT 3SM BKN003 OVC009 M13/M16 A3018 RMK AO1 SLP281
SPECI CYNL 061025Z AUTO ///// 2 1/2SM BKN003 OVC009 M13/M16 A3018 RMK AO1 SLP281
SPECI CYNL 061018Z AUTO ///// 3SM BKN003 OVC009 M13/M16 A3018 RMK AO1 SLP280
SPECI CYNL 061012Z AUTO ///// 2 1/2SM BKN003 OVC009 M13/M16 A3018 RMK AO1 SLP280
SPECI CYNL 061009Z AUTO ///// 3SM BKN003 OVC009 M13/M16 A3018 RMK AO1 SLP280
SPECI CYNL 061004Z AUTO ///// 2 1/2SM BKN003 OVC006 M13/M16 A3017 RMK AO1 SLP279
METAR CYNL 061000Z AUTO ///// 4SM OVC003 M13/M16 A3017 RMK AO1 SLP279
SPECI CYNL 060930Z AUTO ///// 6SM SCT003 BKN006 OVC009 M13/M16 A3017 RMK AO1 SLP278
SPECI CYNL 060922Z AUTO ///// 3SM BKN003 OVC009 M13/M16 A3017 RMK AO1 SLP278
SPECI CYNL 060919Z AUTO 30007KT 2 1/2SM SCT003 BKN006 OVC009 M13/M16 A3017 RMK AO1 SLP278
SPECI CYNL 060911Z AUTO 30007KT 2 1/2SM BKN003 OVC006 M14/M16 A3017 RMK AO1 SLP278
METAR CYNL 060900Z AUTO 30008KT 3SM BKN003 OVC006 M14/M16 A3017 RMK AO1 SLP277
SPECI CYNL 060845Z AUTO ///// 5SM BKN003 OVC005 M14/M16 A3016 RMK AO1 SLP274
SPECI CYNL 060842Z AUTO ///// 5SM SCT003 OVC005 M14/M16 A3016 RMK AO1 SLP274
SPECI CYNL 060841Z AUTO 30008KT 5SM BKN003 OVC005 M14/M16 A3016 RMK AO1 SLP274
SPECI CYNL 060835Z AUTO ///// 5SM SCT003 OVC005 M14/M16 A3016 RMK AO1 SLP274
METAR CYNL 060800Z AUTO ///// 9SM BKN003 OVC006 M14/M16 A3016 RMK AO1 SLP272
SPECI CYNL 060713Z AUTO 30008G17KT 3SM BKN003 OVC005 M14/M16 A3015 RMK AO1 SLP270
SPECI CYNL 060710Z AUTO 31006KT 2 1/2SM BKN003 OVC005 M14/M16 A3015 RMK AO1 SLP270
METAR CYNL 060700Z AUTO 31008KT 7SM BKN003 OVC007 M14/M16 A3015 RMK AO1 SLP271
METAR CYNL 060600Z AUTO ///// 4SM BKN003 OVC008 M14/M17 A3015 RMK AO1 SLP268
SPECI CYNL 060517Z AUTO 32006KT 8SM BKN003 OVC007 M14/M17 A3014 RMK AO1 SLP265
SPECI CYNL 060515Z AUTO 32008KT 9SM SCT003 BKN005 OVC007 M14/M17 A3014 RMK AO1 SLP266
METAR CYNL 060500Z AUTO 31006KT 4SM BKN003 OVC006 M15/M17 A3014 RMK AO1 SLP265
SPECI CYNL 060445Z AUTO 30006KT 3SM BKN003 OVC006 M15/M17 A3013 RMK AO1 SLP265
SPECI CYNL 060443Z AUTO 32007KT 2 1/2SM SCT003 OVC006 M15/M17 A3013 RMK AO1 SLP265
SPECI CYNL 060432Z AUTO 31007KT 4SM FEW003 BKN006 OVC007 M15/M17 A3013 RMK AO1 SLP265
SPECI CYNL 060430Z AUTO 32007KT 2 1/2SM FEW003 BKN006 OVC008 M15/M17 A3013 RMK AO1 SLP265
METAR CYNL 060400Z AUTO ///// 9SM FEW003 OVC005 M15/M17 A3012 RMK AO1 SLP262
SPECI CYNL 060343Z AUTO ///// 8SM SCT003 BKN005 OVC008 M15/M17 A3012 RMK AO1 SLP261
SPECI CYNL 060342Z AUTO ///// 6SM BKN003 BKN005 OVC008 M15/M17 A3012 RMK AO1 SLP261
SPECI CYNL 060331Z AUTO ///// 9SM SCT003 BKN006 OVC008 M15/M17 A3012 RMK AO1 SLP261
SPECI CYNL 060319Z AUTO 31009KT 3SM BKN003 OVC006 M14/M17 A3011 RMK AO1 SLP259
SPECI CYNL 060317Z AUTO 31007KT 2SM BKN003 OVC006 M14/M17 A3011 RMK AO1 SLP259
SPECI CYNL 060313Z AUTO 31007KT 1 3/4SM BKN003 OVC006 M14/M17 A3011 RMK AO1 SLP259
SPECI CYNL 060312Z AUTO 32008KT 2SM BKN003 OVC006 M14/M17 A3011 RMK AO1 SLP259
SPECI CYNL 060304Z AUTO ///// 3SM BKN003 OVC006 M14/M17 A3011 RMK AO1 SLP259
SPECI CYNL 060301Z AUTO ///// 2 1/2SM SCT003 BKN004 OVC006 M14/M17 A3011 RMK AO1 SLP258
METAR CYNL 060300Z AUTO ///// 4SM SCT003 BKN004 OVC006 M14/M17 A3011 RMK AO1 SLP258
SPECI CYNL 060256Z AUTO ///// 5SM BKN003 OVC006 M14/M16 A3011 RMK AO1 SLP259
SPECI CYNL 060254Z AUTO ///// 2SM BKN003 OVC006 M14/M16 A3011 RMK AO1 SLP258
SPECI CYNL 060248Z AUTO 32008KT 1 3/4SM BKN003 OVC006 M14/M16 A3011 RMK AO1 SLP257
SPECI CYNL 060247Z AUTO 32008KT 2SM BKN003 OVC006 M14/M16 A3011 RMK AO1 SLP258
SPECI CYNL 060223Z AUTO ///// 4SM OVC003 M14/M17 A3010 RMK AO1 SLP257
SPECI CYNL 060222Z AUTO ///// 2 1/2SM OVC003 M14/M17 A3010 RMK AO1 SLP257
SPECI CYNL 060221Z AUTO ///// 1 3/4SM OVC003 M14/M17 A3010 RMK AO1 SLP257
SPECI CYNL 060220Z AUTO ///// 2SM OVC003 M14/M17 A3010 RMK AO1 SLP257
SPECI CYNL 060214Z AUTO ///// 3SM BKN003 OVC007 M14/M17 A3010 RMK AO1 SLP257
SPECI CYNL 060213Z AUTO ///// 2SM BKN003 OVC007 M14/M17 A3010 RMK AO1 SLP256
SPECI CYNL 060208Z AUTO ///// 1 3/4SM BKN003 OVC006 M14/M17 A3010 RMK AO1 SLP255
SPECI CYNL 060207Z AUTO ///// 2 1/2SM BKN003 OVC006 M14/M17 A3010 RMK AO1 SLP255
SPECI CYNL 060206Z AUTO ///// 3SM BKN003 OVC006 M14/M17 A3010 RMK AO1 SLP255
SPECI CYNL 060205Z AUTO ///// 2 1/2SM BKN003 OVC006 M14/M17 A3010 RMK AO1 SLP255
METAR CYNL 060200Z AUTO ///// 1 3/4SM BKN003 BKN005 OVC009 M14/M17 A3010 RMK AO1 SLP254
SPECI CYNL 060158Z AUTO ///// 2 1/2SM BKN003 BKN005 OVC009 M14/M16 A3010 RMK AO1 SLP254
SPECI CYNL 060141Z AUTO ///// 3SM BKN003 BKN005 OVC007 M14/M16 A3009 RMK AO1 SLP253
SPECI CYNL 060137Z AUTO ///// 2 1/2SM BKN003 BKN005 OVC007 M14/M16 A3009 RMK AO1 SLP252
SPECI CYNL 060120Z AUTO ///// 5SM SCT003 OVC006 M14/M16 A3009 RMK AO1 SLP251
SPECI CYNL 060117Z AUTO ///// 9SM SCT003 OVC006 M14/M16 A3009 RMK AO1 SLP251
METAR CYNL 060100Z AUTO ///// 9SM SCT003 OVC006 M14/M16 A3008 RMK AO1 SLP250
SPECI CYNL 060052Z AUTO ///// 9SM SCT003 BKN006 OVC010 M14/M16 A3008 RMK AO1 SLP249
SPECI CYNL 060026Z AUTO 32006KT 3SM BKN003 OVC006 M14/M16 A3008 RMK AO1 SLP248
SPECI CYNL 060025Z AUTO 32007KT 2 1/2SM BKN003 OVC006 M14/M16 A3008 RMK AO1 SLP248
SPECI CYNL 060021Z AUTO 32006KT 3SM BKN003 OVC006 M14/M16 A3008 RMK AO1 SLP248
SPECI CYNL 060018Z AUTO ///// 2 1/2SM BKN003 OVC006 M14/M16 A3008 RMK AO1 SLP248
SPECI CYNL 060012Z AUTO ///// 3SM BKN003 OVC006 M14/M16 A3008 RMK AO1 SLP249
SPECI CYNL 060007Z AUTO 31008KT 2 1/2SM BKN003 BKN006 OVC010 M14/M16 A3008 RMK AO1 SLP248
SPECI CYNL 060006Z AUTO 31008KT 3SM BKN003 BKN006 OVC010 M14/M16 A3008 RMK AO1 SLP248
SPECI CYNL 060005Z AUTO 31007KT 2 1/2SM BKN003 BKN006 OVC010 M14/M16 A3008 RMK AO1 SLP248
SPECI CYNL 060003Z AUTO ///// 1 3/4SM SCT003 BKN006 OVC010 M14/M16 A3008 RMK AO1 SLP248
SPECI CYNL 060002Z AUTO ///// 2 1/2SM SCT003 BKN006 OVC010 M14/M16 A3008 RMK AO1 SLP248
METAR CYNL 060000Z AUTO ///// 5SM SCT003 BKN006 OVC010 M14/M16 A3008 RMK AO1 SLP248
SPECI CYNL 052355Z AUTO 32008KT 3SM SCT003 BKN006 OVC008 M14/M16 A3008 RMK AO1 SLP248
SPECI CYNL 052354Z AUTO 32007KT 2 1/2SM SCT003 OVC006 M14/M16 A3008 RMK AO1 SLP248
SPECI CYNL 052340Z AUTO ///// 9SM SCT003 BKN007 OVC010 M14/M16 A3007 RMK AO1 SLP247
SPECI CYNL 052338Z AUTO ///// 8SM SCT003 BKN007 OVC010 M14/M16 A3007 RMK AO1 SLP247
SPECI CYNL 052322Z AUTO 30006KT 3SM BKN003 OVC007 M14/M16 A3007 RMK AO1 SLP245
SPECI CYNL 052319Z AUTO ///// 2 1/2SM BKN003 OVC007 M14/M16 A3007 RMK AO1 SLP245
METAR CYNL 052300Z AUTO ///// 5SM BKN003 BKN006 OVC008 M14/M16 A3007 RMK AO1 SLP243
SPECI CYNL 052259Z AUTO ///// 3SM BKN003 BKN006 OVC008 M14/M16 A3007 RMK AO1 SLP243
SPECI CYNL 052256Z AUTO ///// 2 1/2SM BKN003 BKN006 OVC008 M14/M16 A3006 RMK AO1 SLP241
SPECI CYNL 052234Z AUTO 32008KT 3SM BKN003 BKN007 OVC009 M14/M16 A3006 RMK AO1 SLP239
SPECI CYNL 052230Z AUTO 32006KT 2 1/2SM SCT003 BKN007 OVC009 M14/M16 A3006 RMK AO1 SLP238
METAR CYNL 052200Z AUTO ///// 9SM FEW003 BKN009 OVC013 M13/M15 A3005 RMK AO1 SLP234
SPECI CYNL 052158Z AUTO ///// 9SM FEW003 BKN009 OVC013 M13/M15 A3005 RMK AO1 SLP232
SPECI CYNL 052120Z AUTO ///// 9SM FEW009 BKN010 BKN014 M12/M14 A3003 RMK AO1 SLP226
METAR CYNL 052100Z AUTO ///// 9SM SCT010 BKN014 M12/M14 A3003 RMK AO1 SLP225
METAR CYNL 052000Z AUTO ///// 9SM OVC010 M11/M14 A3002 RMK AO1 SLP222
SPECI CYNL 051943Z AUTO ///// 9SM SCT008 OVC010 M12/M14 A3002 RMK AO1 SLP221
SPECI CYNL 051941Z AUTO 30010KT 9SM OVC009 M12/M14 A3002 RMK AO1 SLP221
SPECI CYNL 051939Z AUTO ///// 9SM FEW005 SCT008 OVC010 M12/M14 A3002 RMK AO1 SLP221
SPECI CYNL 051916Z AUTO ///// 9SM FEW003 SCT006 BKN009 M12/M14 A3001 RMK AO1 SLP219
SPECI CYNL 051911Z AUTO 31007KT 3SM FEW003 SCT009 OVC012 M11/M14 A3001 RMK AO1 SLP218
SPECI CYNL 051903Z AUTO ///// 2 1/2SM FEW004 OVC011 M11/M14 A3001 RMK AO1 SLP217
METAR CYNL 051900Z AUTO 32007G15KT 5SM FEW004 OVC011 M11/M13 A3001 RMK AO1 SLP216
SPECI CYNL 051856Z AUTO 33008G15KT 9SM FEW003 BKN010 OVC012 M11/M13 A3001 RMK AO1 SLP216
SPECI CYNL 051844Z AUTO 32007G16KT 3SM FEW003 BKN008 OVC012 M11/M13 A3000 RMK AO1 SLP216
SPECI CYNL 051843Z AUTO 33005KT 2 1/2SM VV010 M11/M14 A3000 RMK AO1 SLP216
SPECI CYNL 051842Z AUTO 32006KT 3SM FEW003 BKN009 OVC012 M11/M14 A3000 RMK AO1 SLP216
SPECI CYNL 051836Z AUTO 33009KT 2 1/2SM FEW003 OVC008 M12/M14 A3000 RMK AO1 SLP216
METAR CYNL 051800Z AUTO ///// 9SM OVC008 M12/M14 A3000 RMK AO1 SLP214
SPECI CYNL 051720Z AUTO ///// 4SM SCT003 BKN007 OVC009 M12/M14 A2999 RMK AO1 SLP212
SPECI CYNL 051701Z AUTO ///// 3SM BKN003 OVC007 M12/M14 A2999 RMK AO1 SLP213
METAR CYNL 051700Z AUTO 33007KT 3SM SCT003 BKN005 OVC007 M12/M14 A2999 RMK AO1 SLP213
SPECI CYNL 051639Z AUTO 33007KT 3SM FEW003 BKN006 OVC010 M13/M15 A2999 RMK AO1 SLP213
SPECI CYNL 051637Z AUTO ///// 2 1/2SM FEW003 BKN006 OVC010 M13/M15 A2999 RMK AO1 SLP213
METAR CYNL 051600Z AUTO 34005KT 4SM SCT003 OVC006 M13/M15 A2999 RMK AO1 SLP213
METAR CYNL 051500Z AUTO 33006KT 9SM SCT003 OVC006 M14/M16 A2998 RMK AO1 SLP211
SPECI CYNL 051415Z AUTO 32007KT 9SM OVC005 M14/M17 A2997 RMK AO1 SLP208
METAR CYNL 051400Z AUTO ///// 5SM OVC004 M14/M17 A2997 RMK AO1 SLP206
METAR CYNL 051300Z AUTO 33009KT 9SM OVC004 M15/M17 A2996 RMK AO1 PRESRR SLP202
SPECI CYNL 051207Z AUTO ///// 9SM BKN004 OVC006 M15/M17 A2994 RMK AO1 SLP195
METAR CYNL 051200Z AUTO ///// 9SM OVC005 M15/M17 A2993 RMK AO1 SLP194
METAR CYNL 051100Z AUTO 32008KT 9SM FEW003 OVC007 M13/M15 A2991 RMK AO1 SLP186
METAR CYNL 051000Z AUTO 33006KT 8SM OVC007 M12/M14 A2990 RMK AO1 SLP180
SPECI CYNL 050954Z AUTO 33007KT 3SM OVC007 M12/M14 A2990 RMK AO1 SLP177
SPECI CYNL 050953Z AUTO 33006KT 2 1/2SM OVC007 M12/M14 A2990 RMK AO1 SLP177
METAR CYNL 050900Z AUTO ///// 9SM OVC006 M12/M14 A2990 RMK AO1 SLP175
METAR CYNL 050800Z AUTO ///// 9SM OVC007 M11/M13 A2988 RMK AO1 SLP168
METAR CYNL 050700Z AUTO ///// 9SM OVC005 M12/M14 A2986 RMK AO1 SLP163
SPECI CYNL 050636Z AUTO ///// 9SM BKN005 OVC007 M12/M14 A2986 RMK AO1 SLP162
METAR CYNL 050600Z AUTO 34006KT 8SM OVC004 M12/M13 A2986 RMK AO1 SLP160
SPECI CYNL 050535Z AUTO 35006KT 9SM OVC004 M12/M14 A2985 RMK AO1 SLP159
SPECI CYNL 050533Z AUTO 34005KT 9SM OVC005 M12/M14 A2985 RMK AO1 SLP159
SPECI CYNL 050531Z AUTO 35006KT 9SM OVC004 M12/M14 A2985 RMK AO1 SLP159
SPECI CYNL 050502Z AUTO 00006KT 9SM OVC005 M12/M14 A2985 RMK AO1 SLP158
METAR CYNL 050500Z AUTO 35004KT 9SM BKN004 OVC006 M12/M14 A2984 RMK AO1 SLP158
SPECI CYNL 050449Z AUTO ///// 9SM BKN004 OVC006 M12/M14 A2984 RMK AO1 SLP156
SPECI CYNL 050420Z AUTO 34005KT 9SM OVC005 M12/M14 A2984 RMK AO1 SLP154
METAR CYNL 050400Z AUTO 34005KT 9SM OVC004 M12/M14 A2983 RMK AO1 SLP153
SPECI CYNL 050344Z AUTO ///// 4SM BKN004 M12/M14 A2983 RMK AO1 SLP152
SPECI CYNL 050343Z AUTO ///// 6SM SCT004 BKN006 M12/M14 A2983 RMK AO1 SLP152
SPECI CYNL 050337Z AUTO ///// 9SM VV004 M12/M14 A2983 RMK AO1 SLP152
SPECI CYNL 050322Z AUTO ///// 9SM SCT003 M12/M14 A2982 RMK AO1 SLP149
SPECI CYNL 050316Z AUTO ///// 9SM SCT003 BKN006 M11/M13 A2982 RMK AO1 SLP148
METAR CYNL 050300Z AUTO ///// 9SM OVC003 M11/M13 A2982 RMK AO1 SLP147
SPECI CYNL 050251Z AUTO 34007KT 3SM OVC003 M11/M13 A2982 RMK AO1 SLP146
SPECI CYNL 050245Z AUTO 34004KT 2 1/2SM BKN003 OVC006 M11/M13 A2982 RMK AO1 SLP147
SPECI CYNL 050243Z AUTO 35003KT 3SM BKN003 OVC005 M11/M13 A2982 RMK AO1 SLP146
SPECI CYNL 050239Z AUTO 35003KT 2SM BKN003 OVC006 M11/M13 A2982 RMK AO1 SLP146
SPECI CYNL 050236Z AUTO 35004KT 1 3/4SM BKN003 OVC006 M11/M13 A2982 RMK AO1 SLP146
SPECI CYNL 050227Z AUTO 34005KT 2 1/2SM OVC004 M11/M13 A2981 RMK AO1 SLP146
METAR CYNL 050200Z AUTO 34005KT 9SM BKN004 OVC007 M11/M12 A2981 RMK AO1 SLP144
SPECI CYNL 050157Z AUTO 00004KT 9SM BKN004 OVC007 M11/M12 A2981 RMK AO1 SLP144
SPECI CYNL 050138Z AUTO 35007KT 9SM VV007 M11/M12 A2980 RMK AO1 SLP141
SPECI CYNL 050123Z AUTO 00005KT 3SM BKN003 OVC005 M10/M12 A2979 RMK AO1 SLP138
SPECI CYNL 050121Z AUTO 00005KT 2SM BKN003 OVC005 M10/M12 A2979 RMK AO1 SLP138
SPECI CYNL 050120Z AUTO 00004KT 1 1/2SM BKN003 OVC005 M10/M12 A2979 RMK AO1 SLP138
SPECI CYNL 050117Z AUTO 00005KT 1 1/4SM BKN003 OVC005 M11/M12 A2979 RMK AO1 SLP137
SPECI CYNL 050114Z AUTO 00005KT 1 3/4SM BKN003 OVC005 M11/M12 A2979 RMK AO1 SLP137
SPECI CYNL 050111Z AUTO 00006KT 2 1/2SM BKN003 OVC005 M10/M12 A2979 RMK AO1 SLP136
SPECI CYNL 050105Z AUTO 35005KT 5SM VV004 M10/M12 A2979 RMK AO1 SLP136
SPECI CYNL 050103Z AUTO 00005KT 5SM VV005 M10/M12 A2979 RMK AO1 SLP136
SPECI CYNL 050102Z AUTO 00005KT 4SM VV004 M10/M12 A2979 RMK AO1 SLP136
METAR CYNL 050100Z AUTO 00006KT 6SM VV005 M10/M12 A2979 RMK AO1 SLP136
SPECI CYNL 050056Z AUTO 00006KT 4SM BKN003 OVC006 M10/M12 A2979 RMK AO1 SLP136
SPECI CYNL 050055Z AUTO 35004KT 2 1/2SM BKN003 OVC006 M10/M12 A2979 RMK AO1 SLP136
SPECI CYNL 050053Z AUTO 35003KT 1 1/2SM BKN003 OVC006 M10/M12 A2979 RMK AO1 SLP136
SPECI CYNL 050052Z AUTO 35004KT 1 1/4SM BKN003 OVC006 M10/M12 A2979 RMK AO1 SLP136
SPECI CYNL 050050Z AUTO 35004KT 1 3/4SM BKN003 OVC006 M10/M12 A2979 RMK AO1 SLP136
SPECI CYNL 050046Z AUTO 35004KT 2 1/2SM BKN003 OVC006 M10/M12 A2979 RMK AO1 SLP135
SPECI CYNL 050042Z AUTO 35003KT 3SM BKN003 OVC006 M10/M12 A2979 RMK AO1 SLP135
SPECI CYNL 050041Z AUTO 35003KT 2 1/2SM VV004 M10/M12 A2979 RMK AO1 SLP135
SPECI CYNL 050040Z AUTO 35004KT 1 3/4SM VV004 M10/M12 A2979 RMK AO1 SLP135
SPECI CYNL 050034Z AUTO 00004KT 1 1/2SM VV005 M10/M12 A2979 RMK AO1 SLP135
SPECI CYNL 050032Z AUTO 00004KT 1 3/4SM BKN003 OVC006 M10/M12 A2979 RMK AO1 SLP135
SPECI CYNL 050030Z AUTO 00004KT 2SM OVC003 M10/M12 A2979 RMK AO1 SLP135
SPECI CYNL 050028Z AUTO 00004KT 1 1/2SM OVC003 M10/M12 A2979 RMK AO1 SLP135
SPECI CYNL 050024Z AUTO 00003KT 1SM OVC003 M11/M12 A2979 RMK AO1 SLP135
SPECI CYNL 050023Z AUTO 00003KT 3/4SM VV003 M11/M12 A2979 RMK AO1 SLP135
SPECI CYNL 050011Z AUTO 35002KT 1/4SM VV003 M11/M12 A2978 RMK AO1 SLP135
SPECI CYNL 050009Z AUTO 35002KT 1/4SM VV002 M11/M12 A2978 RMK AO1 SLP134
METAR CYNL 050000Z AUTO 00002KT 5/8SM BKN003 OVC007 M11/M13 A2978 RMK AO1 SLP134
SPECI CYNL 042359Z AUTO 01002KT 5/8SM VV004 M11/M12 A2978 RMK AO1 SLP133
SPECI CYNL 042349Z AUTO 00000KT 3/8SM VV005 M11/M13 A2978 RMK AO1 SLP133
SPECI CYNL 042339Z AUTO 00000KT 5/8SM BKN003 BKN005 M11/M13 A2978 RMK AO1 SLP132
SPECI CYNL 042338Z AUTO 00000KT 3/4SM BKN003 BKN005 M11/M12 A2978 RMK AO1 SLP132
SPECI CYNL 042331Z AUTO 35002KT 1SM BKN003 M11/M12 A2978 RMK AO1 SLP132
SPECI CYNL 042330Z AUTO 35002KT 1 1/4SM SCT003 BKN005 M11/M12 A2978 RMK AO1 SLP131
SPECI CYNL 042328Z AUTO 35003KT 2 1/2SM SCT003 BKN005 M11/M12 A2978 RMK AO1 SLP131
SPECI CYNL 042326Z AUTO 34003KT 4SM SCT003 BKN005 M11/M13 A2978 RMK AO1 SLP131
SPECI CYNL 042325Z AUTO 35003KT 7SM BKN004 M11/M13 A2977 RMK AO1 SLP130
SPECI CYNL 042323Z AUTO 35003KT 9SM SCT004 BKN007 M11/M12 A2977 RMK AO1 SLP130
METAR CYNL 042300Z AUTO 01005KT 9SM FEW004 SCT007 M10/M12 A2977 RMK AO1 SLP127
SPECI CYNL 042245Z AUTO 00005KT 9SM FEW004 SCT007 M10/M11 A2976 RMK AO1 SLP124
SPECI CYNL 042244Z AUTO 00005KT 9SM FEW004 SCT007 BKN010 M10/M11 A2976 RMK AO1 SLP124
METAR CYNL 042200Z AUTO 02006KT 9SM OVC005 M09/M10 A2975 RMK AO1 SLP119
SPECI CYNL 042150Z AUTO 01005KT 9SM OVC005 M09/M10 A2975 RMK AO1 SLP118
SPECI CYNL 042146Z AUTO 03004KT 5SM OVC004 M09/M10 A2975 RMK AO1 SLP118
SPECI CYNL 042144Z AUTO 02004KT 2 1/2SM OVC004 M09/M10 A2975 RMK AO1 SLP118
SPECI CYNL 042137Z AUTO 01005KT 6SM BKN004 OVC007 M09/M10 A2975 RMK AO1 SLP117
SPECI CYNL 042136Z AUTO 01005KT 9SM BKN005 OVC007 M09/M10 A2975 RMK AO1 SLP117
SPECI CYNL 042134Z AUTO 03005KT 9SM BKN004 OVC006 M09/M10 A2975 RMK AO1 SLP117
METAR CYNL 042100Z AUTO 03007KT 9SM BKN005 OVC008 M08/M10 A2974 RMK AO1 SLP114
METAR CYNL 042000Z AUTO 31004KT 9SM OVC006 M08/M10 A2973 RMK AO1 SLP110
SPECI CYNL 041902Z AUTO 00004KT 4SM FEW003 OVC005 M08/M10 A2973 RMK AO1 SLP112
METAR CYNL 041900Z AUTO 00003KT 2SM SCT003 OVC006 M08/M10 A2973 RMK AO1 SLP112
SPECI CYNL 041859Z AUTO 35005KT 320V020 2SM SCT003 OVC006 M08/M10 A2973 RMK AO1 SLP112
SPECI CYNL 041850Z AUTO 32002KT 9SM SCT003 BKN006 OVC010 M07/M09 A2973 RMK AO1 SLP112
SPECI CYNL 041845Z AUTO 00000KT 3SM BKN003 OVC010 M07/M10 A2974 RMK AO1 SLP111
SPECI CYNL 041844Z AUTO 00000KT 1 3/4SM BKN003 OVC010 M07/M10 A2974 RMK AO1 SLP112
SPECI CYNL 041842Z AUTO 00000KT 1SM BKN003 OVC010 M07/M10 A2974 RMK AO1 SLP112
SPECI CYNL 041841Z AUTO 00000KT 3/4SM BKN003 OVC010 M07/M10 A2974 RMK AO1 SLP112
SPECI CYNL 041839Z AUTO 00000KT 1SM SCT003 BKN006 OVC010 M08/M10 A2974 RMK AO1 SLP112
SPECI CYNL 041838Z AUTO 00000KT 3/4SM SCT003 BKN006 OVC010 M08/M10 A2974 RMK AO1 SLP112
SPECI CYNL 041833Z AUTO 00000KT 1/2SM SCT003 BKN005 OVC010 M08/M10 A2974 RMK AO1 SLP112
SPECI CYNL 041831Z AUTO 00000KT 3/4SM VV008 M08/M10 A2974 RMK AO1 SLP112
SPECI CYNL 041828Z AUTO 00000KT 5/8SM SCT003 BKN005 BKN008 M08/M10 A2974 RMK AO1 SLP112
SPECI CYNL 041826Z AUTO 00000KT 3/4SM SCT003 BKN005 OVC010 M08/M10 A2973 RMK AO1 SLP112
SPECI CYNL 041823Z AUTO 00000KT 1/2SM SCT003 OVC005 M08/M10 A2973 RMK AO1 SLP112
SPECI CYNL 041817Z AUTO 00000KT 1 1/4SM FEW003 OVC006 M08/M10 A2973 RMK AO1 SLP111
SPECI CYNL 041816Z AUTO 00000KT 1 3/4SM FEW003 OVC006 M08/M10 A2973 RMK AO1 SLP111
SPECI CYNL 041803Z AUTO 00000KT 4SM FEW003 OVC005 M08/M10 A2973 RMK AO1 SLP112
METAR CYNL 041800Z AUTO 00000KT 2 1/2SM FEW003 OVC006 M08/M10 A2973 RMK AO1 SLP111
SPECI CYNL 041730Z AUTO 03005KT 9SM OVC005 M08/M10 A2973 RMK AO1 SLP110
SPECI CYNL 041728Z AUTO 05004KT 1 1/2SM OVC005 M08/M10 A2973 RMK AO1 SLP110
SPECI CYNL 041727Z AUTO 07003KT 2SM OVC005 M08/M10 A2973 RMK AO1 SLP110
METAR CYNL 041700Z AUTO 33004KT 9SM OVC005 M08/M10 A2972 RMK AO1 SLP108
SPECI CYNL 041654Z AUTO 31003KT 5SM FEW003 OVC006 M08/M10 A2972 RMK AO1 SLP108
SPECI CYNL 041649Z AUTO 32003KT 2 1/2SM FEW004 OVC006 M08/M10 A2972 RMK AO1 SLP108
METAR CYNL 041600Z AUTO 01005KT 9SM OVC006 M08/M10 A2972 RMK AO1 SLP107
METAR CYNL 041500Z AUTO 34003KT 9SM OVC008 M08/M10 A2973 RMK AO1 SLP108
SPECI CYNL 041434Z AUTO 33002KT 9SM OVC009 M08/M10 A2973 RMK AO1 SLP109
SPECI CYNL 041424Z AUTO 34003KT 9SM OVC010 M08/M10 A2973 RMK AO1 SLP110
METAR CYNL 041400Z AUTO 00000KT 9SM OVC009 M08/M10 A2974 RMK AO1 SLP111
SPECI CYNL 041343Z AUTO 33004KT 9SM BKN009 OVC013 M08/M10 A2974 RMK AO1 SLP110
SPECI CYNL 041333Z AUTO 30006KT 9SM FEW009 OVC013 M08/M10 A2974 RMK AO1 SLP111
SPECI CYNL 041312Z AUTO 29003KT 9SM BKN014 OVC017 M08/M10 A2975 RMK AO1 SLP113
METAR CYNL 041300Z AUTO 30003KT 9SM OVC016 M08/M10 A2975 RMK AO1 SLP112
SPECI CYNL 041209Z AUTO 29004KT 9SM SCT009 OVC017 M07/M09 A2974 RMK AO1 SLP109
SPECI CYNL 041206Z AUTO 29003KT 9SM SCT009 BKN011 OVC017 M07/M09 A2974 RMK AO1 SLP109
SPECI CYNL 041204Z AUTO 32004KT 9SM BKN009 OVC017 M07/M09 A2974 RMK AO1 SLP109
SPECI CYNL 041201Z AUTO 33003KT 9SM SCT009 OVC016 M07/M09 A2973 RMK AO1 SLP108
METAR CYNL 041200Z AUTO 32003KT 9SM BKN009 OVC016 M07/M09 A2973 RMK AO1 SLP108
SPECI CYNL 041143Z AUTO 00000KT 9SM BKN009 BKN015 OVC019 M07/M09 A2973 RMK AO1 SLP108
SPECI CYNL 041120Z AUTO 32004KT 9SM SCT009 OVC020 M07/M09 A2973 RMK AO1 SLP107
SPECI CYNL 041106Z AUTO 33005KT 9SM SCT010 BKN015 OVC021 M07/M09 A2973 RMK AO1 SLP107
METAR CYNL 041100Z AUTO 33003KT 9SM BKN010 OVC020 M07/M09 A2973 RMK AO1 SLP107
SPECI CYNL 041054Z AUTO 32004KT 9SM BKN010 OVC018 M07/M09 A2974 RMK AO1 SLP109
SPECI CYNL 041052Z AUTO 31004KT 9SM BKN009 OVC018 M07/M09 A2974 RMK AO1 SLP109
SPECI CYNL 041048Z AUTO 32004KT 9SM BKN010 OVC016 M07/M08 A2974 RMK AO1 SLP109
SPECI CYNL 041029Z AUTO 31004KT 9SM BKN009 OVC016 M07/M08 A2973 RMK AO1 SLP107
SPECI CYNL 041026Z AUTO 31004KT 9SM SCT009 OVC016 M07/M08 A2973 RMK AO1 SLP107
METAR CYNL 041000Z AUTO 32004KT 9SM OVC016 M06/M08 A2974 RMK AO1 SLP109
SPECI CYNL 040902Z AUTO 31002KT 9SM FEW010 OVC015 M06/M08 A2974 RMK AO1 SLP111
SPECI CYNL 040901Z AUTO 30002KT 9SM OVC014 M06/M08 A2974 RMK AO1 SLP111
METAR CYNL 040900Z AUTO 29003KT 9SM FEW010 OVC015 M06/M08 A2974 RMK AO1 SLP111
SPECI CYNL 040859Z AUTO 29003KT 8SM FEW011 OVC015 M06/M08 A2974 RMK AO1 SLP112
METAR CYNL 040800Z AUTO 31003KT 7SM BKN013 OVC018 M06/M08 A2974 RMK AO1 SLP111
SPECI CYNL 040748Z AUTO 30002KT 9SM BKN014 OVC018 M06/M08 A2975 RMK AO1 SLP112
SPECI CYNL 040729Z AUTO 29003KT 9SM SCT014 OVC018 M06/M08 A2975 RMK AO1 SLP112
SPECI CYNL 040726Z AUTO 29003KT 9SM BKN014 OVC018 M06/M08 A2975 RMK AO1 SLP112
SPECI CYNL 040725Z AUTO 28002KT 9SM OVC015 M06/M08 A2975 RMK AO1 SLP112
SPECI CYNL 040711Z AUTO 00000KT 9SM OVC014 M06/M08 A2975 RMK AO1 SLP112
METAR CYNL 040700Z AUTO 31002KT 9SM OVC016 M06/M08 A2975 RMK AO1 SLP112
SPECI CYNL 040626Z AUTO 31004KT 9SM FEW009 SCT012 OVC016 M06/M08 A2975 RMK AO1 SLP113
SPECI CYNL 040625Z AUTO 31004KT 9SM SCT010 OVC016 M06/M08 A2975 RMK AO1 SLP113
SPECI CYNL 040622Z AUTO 31005KT 9SM FEW009 BKN012 OVC015 M06/M08 A2975 RMK AO1 SLP113
METAR CYNL 040600Z AUTO 30006KT 9SM OVC011 M06/M07 A2975 RMK AO1 SLP112
SPECI CYNL 040518Z AUTO 30007KT 6SM SCT009 OVC013 M05/M07 A2975 RMK AO1 SLP114
METAR CYNL 040500Z AUTO 31006KT 9SM OVC008 M05/M07 A2976 RMK AO1 SLP116
METAR CYNL 040400Z AUTO 29007KT 9SM OVC009 M05/M07 A2976 RMK AO1 SLP117
SPECI CYNL 040344Z AUTO 29006KT 9SM OVC009 M05/M06 A2976 RMK AO1 SLP118
SPECI CYNL 040304Z AUTO 30005KT 3SM SCT008 BKN012 BKN015 M05/M06 A2976 RMK AO1 SLP118
SPECI CYNL 040302Z AUTO 30005KT 2 1/2SM FEW008 BKN012 OVC028 M04/M06 A2976 RMK AO1 SLP118
SPECI CYNL 040301Z AUTO 30006KT 3SM FEW007 BKN012 OVC028 M04/M06 A2976 RMK AO1 SLP118
METAR CYNL 040300Z AUTO 29007KT 3SM FEW007 SCT012 BKN015 M04/M06 A2976 RMK AO1 SLP118
SPECI CYNL 040256Z AUTO 30007KT 3SM FEW008 SCT010 BKN015 M04/M06 A2977 RMK AO1 SLP119
SPECI CYNL 040252Z AUTO 29009KT 4SM SCT008 BKN012 BKN015 M04/M06 A2976 RMK AO1 SLP119
SPECI CYNL 040243Z AUTO 30006KT 3SM BKN008 OVC012 M04/M05 A2976 RMK AO1 SLP118
SPECI CYNL 040236Z AUTO 30007KT 2 1/2SM BKN008 OVC012 M04/M05 A2976 RMK AO1 SLP117
METAR CYNL 040200Z AUTO 26005KT 6SM BKN008 BKN011 OVC021 M03/M04 A2976 RMK AO1 SLP116
SPECI CYNL 040158Z AUTO 26004KT 5SM BKN009 BKN011 OVC018 M03/M04 A2976 RMK AO1 SLP116
SPECI CYNL 040148Z AUTO 25004KT 9SM FEW008 BKN011 BKN018 M03/M04 A2976 RMK AO1 SLP116
SPECI CYNL 040141Z AUTO 23003KT 6SM BKN011 OVC023 M03/M04 A2976 RMK AO1 SLP117
SPECI CYNL 040134Z AUTO 22004KT 8SM FEW009 SCT012 BKN019 M03/M04 A2976 RMK AO1 SLP117
SPECI CYNL 040124Z AUTO 22004KT 4SM FEW009 BKN013 OVC024 M04/M05 A2976 RMK AO1 SLP118
SPECI CYNL 040123Z AUTO 21004KT 4SM FEW009 SCT012 BKN015 M04/M05 A2976 RMK AO1 SLP118
SPECI CYNL 040122Z AUTO 21004KT 3SM FEW009 OVC013 M04/M05 A2976 RMK AO1 SLP118
SPECI CYNL 040118Z AUTO 22004KT 2SM FEW009 BKN011 OVC015 M04/M05 A2977 RMK AO1 SLP119